Home > Products > Valid Products > TAF

000
FTUS43 KLOT 290321 AAA
TAFRFD
TAF AMD
KRFD 290321Z 2903/2924 13007KT P6SM BKN250
     FM290900 15006KT P6SM -SHRA BKN040
      TEMPO 2911/2913 -TSRA OVC040CB
     FM291400 19012G17KT 3SM TSRA BKN035CB
     FM291900 21014G21KT P6SM BKN035=



000
FTUS43 KLOT 290321 AAA
TAFMDW
TAF AMD
KMDW 290321Z 2903/2924 10006KT P6SM BKN250
     FM290900 15005KT P6SM SCT040 BKN100
     FM291200 18009KT P6SM -SHRA BKN040
      TEMPO 2912/2914 -TSRA OVC040CB
     FM291700 19012G17KT 3SM TSRA BKN035CB
     FM291900 21014G21KT P6SM BKN035=



000
FTUS43 KLOT 290321 AAA
TAFORD
TAF AMD
KORD 290321Z 2903/3006 11006KT P6SM BKN250
     FM290900 15006KT P6SM SCT050 BKN100
     FM291200 18009KT P6SM -SHRA BKN040
      TEMPO 2912/2914 -TSRA OVC040CB
     FM291700 19012G17KT 3SM TSRA BKN035CB
     FM291900 21014G21KT P6SM BKN035
     FM300000 21010KT P6SM BKN045=



000
FTUS43 KLOT 290321 AAA
TAFDPA
TAF AMD
KDPA 290321Z 2903/2924 11007KT P6SM BKN250
     FM290900 15006KT P6SM SCT050 BKN100
     FM291200 18009KT P6SM -SHRA BKN040
      TEMPO 2912/2914 -TSRA OVC040CB
     FM291700 19012G17KT 3SM TSRA BKN035CB
     FM291900 21014G21KT P6SM BKN035=



000
FTUS43 KLOT 290321 AAA
TAFGYY
TAF AMD
KGYY 290321Z 2903/2924 11004KT P6SM BKN250
     FM290900 15004KT P6SM SCT040 BKN100
     FM291200 18009KT P6SM -SHRA BKN040
      TEMPO 2912/2914 -TSRA OVC040CB
     FM291700 19012G18KT 3SM TSRA BKN035CB
     FM292000 21014G21KT P6SM BKN035=



000
FTUS43 KLOT 290321 AAA
TAFGYY
TAF AMD
KGYY 290321Z 2903/2924 11004KT P6SM BKN250
     FM290900 15004KT P6SM SCT040 BKN100
     FM291200 18009KT P6SM -SHRA BKN040
      TEMPO 2912/2914 -TSRA OVC040CB
     FM291700 19012G18KT 3SM TSRA BKN035CB
     FM292000 21014G21KT P6SM BKN035=



000
FTUS43 KLOT 282332
TAFDPA
TAF
KDPA 282332Z 2900/2924 15009KT P6SM FEW060 BKN250
     FM290100 13007KT P6SM BKN200
     FM290900 15006KT P6SM SCT050 BKN100
     FM291200 18009KT P6SM -SHRA BKN040
      TEMPO 2912/2914 -TSRA OVC040CB
     FM291700 19012G17KT 3SM TSRA BKN035CB
     FM291900 21014G21KT P6SM BKN035=



000
FTUS43 KLOT 282332
TAFORD
TAF
KORD 282332Z 2900/3006 11010G15KT P6SM FEW060 BKN250
     FM290100 12007KT P6SM BKN250
     FM290900 15006KT P6SM SCT050 BKN100
     FM291200 18009KT P6SM -SHRA BKN040
      TEMPO 2912/2914 -TSRA OVC040CB
     FM291700 19012G17KT 3SM TSRA BKN035CB
     FM291900 21014G21KT P6SM BKN035
     FM300000 21010KT P6SM BKN045=



000
FTUS43 KLOT 282332
TAFRFD
TAF
KRFD 282332Z 2900/2924 16010G15KT P6SM FEW060 BKN250
     FM290200 13008KT P6SM BKN250
     FM290900 15006KT P6SM -SHRA BKN040
      TEMPO 2911/2913 -TSRA OVC040CB
     FM291400 19012G17KT 3SM TSRA BKN035CB
     FM291900 21014G21KT P6SM BKN035=



000
FTUS43 KLOT 282332
TAFMDW
TAF
KMDW 282332Z 2900/2924 10010G15KT P6SM FEW060 BKN250
     FM290100 10008KT P6SM BKN250
     FM290900 15005KT P6SM SCT040 BKN100
     FM291200 18009KT P6SM -SHRA BKN040
      TEMPO 2912/2914 -TSRA OVC040CB
     FM291700 19012G17KT 3SM TSRA BKN035CB
     FM291900 21014G21KT P6SM BKN035=



000
FTUS43 KLOT 282332
TAFGYY
TAF
KGYY 282332Z 2900/2924 03010KT P6SM FEW060 BKN250
     FM290100 11006KT P6SM BKN250
     FM290900 15004KT P6SM SCT040 BKN100
     FM291200 18009KT P6SM -SHRA BKN040
      TEMPO 2912/2914 -TSRA OVC040CB
     FM291700 19012G18KT 3SM TSRA BKN035CB
     FM292000 21014G21KT P6SM BKN035=



000
FTUS43 KLOT 282332
TAFDPA
TAF
KDPA 282332Z 2900/2924 15009KT P6SM FEW060 BKN250
     FM290100 13007KT P6SM BKN200
     FM290900 15006KT P6SM SCT050 BKN100
     FM291200 18009KT P6SM -SHRA BKN040
      TEMPO 2912/2914 -TSRA OVC040CB
     FM291700 19012G17KT 3SM TSRA BKN035CB
     FM291900 21014G21KT P6SM BKN035=



000
FTUS43 KLOT 282332
TAFGYY
TAF
KGYY 282332Z 2900/2924 03010KT P6SM FEW060 BKN250
     FM290100 11006KT P6SM BKN250
     FM290900 15004KT P6SM SCT040 BKN100
     FM291200 18009KT P6SM -SHRA BKN040
      TEMPO 2912/2914 -TSRA OVC040CB
     FM291700 19012G18KT 3SM TSRA BKN035CB
     FM292000 21014G21KT P6SM BKN035=



000
FTUS43 KLOT 282332
TAFORD
TAF
KORD 282332Z 2900/3006 11010G15KT P6SM FEW060 BKN250
     FM290100 12007KT P6SM BKN250
     FM290900 15006KT P6SM SCT050 BKN100
     FM291200 18009KT P6SM -SHRA BKN040
      TEMPO 2912/2914 -TSRA OVC040CB
     FM291700 19012G17KT 3SM TSRA BKN035CB
     FM291900 21014G21KT P6SM BKN035
     FM300000 21010KT P6SM BKN045=



000
FTUS43 KLOT 282332
TAFRFD
TAF
KRFD 282332Z 2900/2924 16010G15KT P6SM FEW060 BKN250
     FM290200 13008KT P6SM BKN250
     FM290900 15006KT P6SM -SHRA BKN040
      TEMPO 2911/2913 -TSRA OVC040CB
     FM291400 19012G17KT 3SM TSRA BKN035CB
     FM291900 21014G21KT P6SM BKN035=



000
FTUS43 KLOT 282332
TAFMDW
TAF
KMDW 282332Z 2900/2924 10010G15KT P6SM FEW060 BKN250
     FM290100 10008KT P6SM BKN250
     FM290900 15005KT P6SM SCT040 BKN100
     FM291200 18009KT P6SM -SHRA BKN040
      TEMPO 2912/2914 -TSRA OVC040CB
     FM291700 19012G17KT 3SM TSRA BKN035CB
     FM291900 21014G21KT P6SM BKN035=



000
FTUS43 KLOT 282332
TAFGYY
TAF
KGYY 282332Z 2900/2924 03010KT P6SM FEW060 BKN250
     FM290100 11006KT P6SM BKN250
     FM290900 15004KT P6SM SCT040 BKN100
     FM291200 18009KT P6SM -SHRA BKN040
      TEMPO 2912/2914 -TSRA OVC040CB
     FM291700 19012G18KT 3SM TSRA BKN035CB
     FM292000 21014G21KT P6SM BKN035=



000
FTUS43 KLOT 282220 AAB
TAFGYY
TAF AMD
KGYY 282220Z 2822/2918 03010KT P6SM FEW060 BKN250
     FM290100 11006KT P6SM BKN250
     FM290900 15004KT P6SM SCT040 BKN100
     FM291200 18009KT P6SM -SHRA BKN040
      TEMPO 2912/2914 -TSRA OVC040CB
     FM291700 19012KT 3SM TSRA BKN035CB=



000
FTUS43 KLOT 282220 AAB
TAFDPA
TAF AMD
KDPA 282220Z 2822/2918 15009KT P6SM FEW060 BKN250
     FM290100 13007KT P6SM BKN200
     FM290900 15006KT P6SM SCT050 BKN100
     FM291200 18009KT P6SM -SHRA BKN040
      TEMPO 2912/2914 -TSRA OVC040CB
     FM291700 19012KT 3SM TSRA BKN035CB=



000
FTUS43 KLOT 282220 AAB
TAFORD
TAF AMD
KORD 282220Z 2822/2924 11010G15KT P6SM FEW060 BKN250
     FM290100 12007KT P6SM BKN250
     FM290900 15006KT P6SM SCT050 BKN100
     FM291200 18009KT P6SM -SHRA BKN040
      TEMPO 2912/2914 -TSRA OVC040CB
     FM291700 19012KT 3SM TSRA BKN035CB
     FM291900 21012G21KT P6SM BKN035=



000
FTUS43 KLOT 282220 AAB
TAFGYY
TAF AMD
KGYY 282220Z 2822/2918 03010KT P6SM FEW060 BKN250
     FM290100 11006KT P6SM BKN250
     FM290900 15004KT P6SM SCT040 BKN100
     FM291200 18009KT P6SM -SHRA BKN040
      TEMPO 2912/2914 -TSRA OVC040CB
     FM291700 19012KT 3SM TSRA BKN035CB=



000
FTUS43 KLOT 282220 AAB
TAFMDW
TAF AMD
KMDW 282220Z 2822/2918 08010G15KT P6SM FEW060 BKN250
     FM290100 09008KT P6SM BKN250
     FM290900 15005KT P6SM SCT040 BKN100
     FM291200 18009KT P6SM -SHRA BKN040
      TEMPO 2912/2914 -TSRA OVC040CB
     FM291700 19012KT 3SM TSRA BKN035CB=



000
FTUS43 KLOT 282220 AAB
TAFGYY
TAF AMD
KGYY 282220Z 2822/2918 03010KT P6SM FEW060 BKN250
     FM290100 11006KT P6SM BKN250
     FM290900 15004KT P6SM SCT040 BKN100
     FM291200 18009KT P6SM -SHRA BKN040
      TEMPO 2912/2914 -TSRA OVC040CB
     FM291700 19012KT 3SM TSRA BKN035CB=



000
FTUS43 KLOT 282220 AAB
TAFORD
TAF AMD
KORD 282220Z 2822/2924 11010G15KT P6SM FEW060 BKN250
     FM290100 12007KT P6SM BKN250
     FM290900 15006KT P6SM SCT050 BKN100
     FM291200 18009KT P6SM -SHRA BKN040
      TEMPO 2912/2914 -TSRA OVC040CB
     FM291700 19012KT 3SM TSRA BKN035CB
     FM291900 21012G21KT P6SM BKN035=



000
FTUS43 KLOT 282220 AAB
TAFGYY
TAF AMD
KGYY 282220Z 2822/2918 03010KT P6SM FEW060 BKN250
     FM290100 11006KT P6SM BKN250
     FM290900 15004KT P6SM SCT040 BKN100
     FM291200 18009KT P6SM -SHRA BKN040
      TEMPO 2912/2914 -TSRA OVC040CB
     FM291700 19012KT 3SM TSRA BKN035CB=



000
FTUS43 KLOT 282220 AAB
TAFDPA
TAF AMD
KDPA 282220Z 2822/2918 15009KT P6SM FEW060 BKN250
     FM290100 13007KT P6SM BKN200
     FM290900 15006KT P6SM SCT050 BKN100
     FM291200 18009KT P6SM -SHRA BKN040
      TEMPO 2912/2914 -TSRA OVC040CB
     FM291700 19012KT 3SM TSRA BKN035CB=



000
FTUS43 KLOT 282220 AAB
TAFMDW
TAF AMD
KMDW 282220Z 2822/2918 08010G15KT P6SM FEW060 BKN250
     FM290100 09008KT P6SM BKN250
     FM290900 15005KT P6SM SCT040 BKN100
     FM291200 18009KT P6SM -SHRA BKN040
      TEMPO 2912/2914 -TSRA OVC040CB
     FM291700 19012KT 3SM TSRA BKN035CB=



000
FTUS43 KLOT 282220 AAB
TAFRFD
TAF AMD
KRFD 282220Z 2822/2918 16010G15KT P6SM FEW060 BKN250
     FM290200 13008KT P6SM BKN250
     FM290900 15006KT P6SM -SHRA BKN040
      TEMPO 2911/2913 -TSRA OVC040CB
     FM291400 19012KT 3SM TSRA BKN035CB=



000
FTUS43 KLOT 282220 AAB
TAFRFD
TAF AMD
KRFD 282220Z 2822/2918 16010G15KT P6SM FEW060 BKN250
     FM290200 13008KT P6SM BKN250
     FM290900 15006KT P6SM -SHRA BKN040
      TEMPO 2911/2913 -TSRA OVC040CB
     FM291400 19012KT 3SM TSRA BKN035CB=



000
FTUS43 KLOT 281939 AAA
TAFDPA
TAF AMD
KDPA 281939Z 2820/2918 12010KT P6SM FEW050 BKN250
     FM290100 10008KT P6SM FEW050 BKN200
     FM290900 18009KT P6SM SCT050
     FM291300 18010KT P6SM -SHRA BKN040
     FM291500 19012KT 3SM TSRA BKN030CB=



000
FTUS43 KLOT 281939 AAA
TAFRFD
TAF AMD
KRFD 281939Z 2820/2918 18012G20KT P6SM FEW050 BKN250
     FM290300 13008KT P6SM FEW050 BKN250
     FM290900 17010KT P6SM -SHRA BKN040
     FM291400 19012KT 3SM TSRA BKN030CB=



000
FTUS43 KLOT 281939 AAA
TAFGYY
TAF AMD
KGYY 281939Z 2820/2918 05010KT P6SM SCT250
     FM290100 12006KT P6SM FEW050 BKN250
     FM290900 15004KT P6SM SCT040 BKN100
     FM291400 18010KT P6SM -SHRA BKN040
     FM291600 19012KT 3SM TSRA BKN030CB=



000
FTUS43 KLOT 281939 AAA
TAFORD
TAF AMD
KORD 281939Z 2820/2924 11012G18KT P6SM FEW050 BKN250
     FM290100 10008KT P6SM FEW050 BKN200
     FM290900 18009KT P6SM SCT050 OVC150
     FM291300 18010KT P6SM -SHRA BKN040
     FM291500 19012KT 3SM TSRA BKN030CB
     FM291900 21012G21KT P6SM BKN035=



000
FTUS43 KLOT 281939 AAA
TAFRFD
TAF AMD
KRFD 281939Z 2820/2918 18012G20KT P6SM FEW050 BKN250
     FM290300 13008KT P6SM FEW050 BKN250
     FM290900 17010KT P6SM -SHRA BKN040
     FM291400 19012KT 3SM TSRA BKN030CB=



000
FTUS43 KLOT 281939 AAA
TAFDPA
TAF AMD
KDPA 281939Z 2820/2918 12010KT P6SM FEW050 BKN250
     FM290100 10008KT P6SM FEW050 BKN200
     FM290900 18009KT P6SM SCT050
     FM291300 18010KT P6SM -SHRA BKN040
     FM291500 19012KT 3SM TSRA BKN030CB=



000
FTUS43 KLOT 281939 AAA
TAFGYY
TAF AMD
KGYY 281939Z 2820/2918 05010KT P6SM SCT250
     FM290100 12006KT P6SM FEW050 BKN250
     FM290900 15004KT P6SM SCT040 BKN100
     FM291400 18010KT P6SM -SHRA BKN040
     FM291600 19012KT 3SM TSRA BKN030CB=



000
FTUS43 KLOT 281939 AAA
TAFMDW
TAF AMD
KMDW 281939Z 2820/2918 10012G18KT P6SM FEW050 BKN250
     FM290100 09008KT P6SM FEW050 BKN250
     FM290900 15004KT P6SM SCT040 BKN100
     FM291300 18010KT P6SM -SHRA BKN040
     FM291500 19012KT 3SM TSRA BKN030CB=



000
FTUS43 KLOT 281939 AAA
TAFGYY
TAF AMD
KGYY 281939Z 2820/2918 05010KT P6SM SCT250
     FM290100 12006KT P6SM FEW050 BKN250
     FM290900 15004KT P6SM SCT040 BKN100
     FM291400 18010KT P6SM -SHRA BKN040
     FM291600 19012KT 3SM TSRA BKN030CB=



000
FTUS43 KLOT 281939 AAA
TAFGYY
TAF AMD
KGYY 281939Z 2820/2918 05010KT P6SM SCT250
     FM290100 12006KT P6SM FEW050 BKN250
     FM290900 15004KT P6SM SCT040 BKN100
     FM291400 18010KT P6SM -SHRA BKN040
     FM291600 19012KT 3SM TSRA BKN030CB=



000
FTUS43 KLOT 281939 AAA
TAFMDW
TAF AMD
KMDW 281939Z 2820/2918 10012G18KT P6SM FEW050 BKN250
     FM290100 09008KT P6SM FEW050 BKN250
     FM290900 15004KT P6SM SCT040 BKN100
     FM291300 18010KT P6SM -SHRA BKN040
     FM291500 19012KT 3SM TSRA BKN030CB=



000
FTUS43 KLOT 281939 AAA
TAFORD
TAF AMD
KORD 281939Z 2820/2924 11012G18KT P6SM FEW050 BKN250
     FM290100 10008KT P6SM FEW050 BKN200
     FM290900 18009KT P6SM SCT050 OVC150
     FM291300 18010KT P6SM -SHRA BKN040
     FM291500 19012KT 3SM TSRA BKN030CB
     FM291900 21012G21KT P6SM BKN035=



000
FTUS43 KLOT 281736
TAFGYY
TAF
KGYY 281736Z 2818/2918 10006KT P6SM SCT250
     FM282000 07010KT P6SM SCT250
     FM290100 12006KT P6SM FEW050 BKN250
     FM290900 15004KT P6SM SCT040 BKN100
     FM291400 18010KT P6SM -SHRA BKN040
     FM291600 19012KT 3SM TSRA BKN030CB=



000
FTUS43 KLOT 281736
TAFRFD
TAF
KRFD 281736Z 2818/2918 18009KT P6SM FEW050 BKN250
     FM290300 13008KT P6SM FEW050 BKN250
     FM290900 17010KT P6SM -SHRA BKN040
     FM291400 19012KT 3SM TSRA BKN030CB=



000
FTUS43 KLOT 281736
TAFMDW
TAF
KMDW 281736Z 2818/2918 11011KT P6SM FEW050 BKN250
     FM290100 09008KT P6SM FEW050 BKN250
     FM290900 15004KT P6SM SCT040 BKN100
     FM291300 18010KT P6SM -SHRA BKN040
     FM291500 19012KT 3SM TSRA BKN030CB=



000
FTUS43 KLOT 281736
TAFORD
TAF
KORD 281736Z 2818/2924 11011KT P6SM FEW050 BKN250
     FM290100 10008KT P6SM FEW050 BKN200
     FM290900 18009KT P6SM SCT050 OVC150
     FM291300 18010KT P6SM -SHRA BKN040
     FM291500 19012KT 3SM TSRA BKN030CB
     FM291900 21012G21KT P6SM BKN035=



000
FTUS43 KLOT 281736
TAFGYY
TAF
KGYY 281736Z 2818/2918 10006KT P6SM SCT250
     FM282000 07010KT P6SM SCT250
     FM290100 12006KT P6SM FEW050 BKN250
     FM290900 15004KT P6SM SCT040 BKN100
     FM291400 18010KT P6SM -SHRA BKN040
     FM291600 19012KT 3SM TSRA BKN030CB=



000
FTUS43 KLOT 281736
TAFDPA
TAF
KDPA 281736Z 2818/2918 09010KT P6SM FEW050 BKN250
     FM290100 10008KT P6SM FEW050 BKN200
     FM290900 18009KT P6SM SCT050
     FM291300 18010KT P6SM -SHRA BKN040
     FM291500 19012KT 3SM TSRA BKN030CB=



000
FTUS43 KLOT 281706 AAC
TAFORD
TAF AMD
KORD 281706Z 2817/2918 17006KT P6SM SCT250
     FM281800 11010KT P6SM SCT250
     FM290100 10008KT P6SM FEW050 BKN250
     FM290900 15004KT P6SM SCT040 BKN100
     FM291300 18010KT P6SM -SHRA BKN040 BKN080 PROB30 2913/2918
      -TSRA BKN040CB=



000
FTUS43 KLOT 281706 AAC
TAFMDW
TAF AMD
KMDW 281706Z 2817/2912 13010KT P6SM SCT250
     FM290100 09008KT P6SM FEW050 BKN250
     FM290900 15004KT P6SM SCT040 BKN100=



000
FTUS43 KLOT 281706 AAC
TAFORD
TAF AMD
KORD 281706Z 2817/2918 17006KT P6SM SCT250
     FM281800 11010KT P6SM SCT250
     FM290100 10008KT P6SM FEW050 BKN250
     FM290900 15004KT P6SM SCT040 BKN100
     FM291300 18010KT P6SM -SHRA BKN040 BKN080 PROB30 2913/2918
      -TSRA BKN040CB=



000
FTUS43 KLOT 281706 AAC
TAFMDW
TAF AMD
KMDW 281706Z 2817/2912 13010KT P6SM SCT250
     FM290100 09008KT P6SM FEW050 BKN250
     FM290900 15004KT P6SM SCT040 BKN100=



000
FTUS43 KLOT 281556 AAB
TAFMDW
TAF AMD
KMDW 281556Z 2816/2912 16006KT P6SM SCT250
     FM281900 12010KT P6SM SCT250
     FM290100 09008KT P6SM FEW050 BKN250
     FM290900 15004KT P6SM SCT040 BKN100=



000
FTUS43 KLOT 281556 AAB
TAFDPA
TAF AMD
KDPA 281556Z 2816/2912 16006KT P6SM SCT250
     FM281900 11010KT P6SM SCT250
     FM290100 10008KT P6SM FEW050 BKN250
     FM290900 15004KT P6SM VCSH SCT040 BKN100=



000
FTUS43 KLOT 281556 AAB
TAFGYY
TAF AMD
KGYY 281556Z 2816/2912 12006KT P6SM SCT250
     FM282000 07010KT P6SM SCT250
     FM290100 12006KT P6SM FEW050 BKN250
     FM290900 15004KT P6SM SCT040 BKN100=



000
FTUS43 KLOT 281556 AAB
TAFRFD
TAF AMD
KRFD 281556Z 2816/2912 18009KT P6SM FEW050 BKN250
     FM290300 12006KT P6SM FEW050 BKN250
     FM290900 18010KT P6SM -SHRA BKN040 BKN080 PROB30 2909/2912
      -TSRA BKN040CB=



000
FTUS43 KLOT 281556 AAB
TAFGYY
TAF AMD
KGYY 281556Z 2816/2912 12006KT P6SM SCT250
     FM282000 07010KT P6SM SCT250
     FM290100 12006KT P6SM FEW050 BKN250
     FM290900 15004KT P6SM SCT040 BKN100=



000
FTUS43 KLOT 281556 AAB
TAFORD
TAF AMD
KORD 281556Z 2816/2918 16006KT P6SM SCT250
     FM281900 11010KT P6SM SCT250
     FM290100 10008KT P6SM FEW050 BKN250
     FM290900 15004KT P6SM SCT040 BKN100
     FM291300 18010KT P6SM -SHRA BKN040 BKN080 PROB30 2913/2918
      -TSRA BKN040CB=



000
FTUS43 KLOT 281356 AAA
TAFGYY
TAF AMD
KGYY 281356Z 2814/2912 17004KT P6SM FEW250
     FM281700 13006KT P6SM FEW050 SCT250
     FM282000 11008KT P6SM SCT250
     FM290300 12005KT P6SM FEW050 BKN250
     FM290900 15004KT P6SM SCT040 BKN100=



000
FTUS43 KLOT 281356 AAA
TAFGYY
TAF AMD
KGYY 281356Z 2814/2912 17004KT P6SM FEW250
     FM281700 13006KT P6SM FEW050 SCT250
     FM282000 11008KT P6SM SCT250
     FM290300 12005KT P6SM FEW050 BKN250
     FM290900 15004KT P6SM SCT040 BKN100=



000
FTUS43 KLOT 281356 AAA
TAFMDW
TAF AMD
KMDW 281356Z 2814/2912 17003KT P6SM FEW250
     FM281700 13007KT P6SM FEW050 SCT250
     FM282000 11010KT P6SM SCT250
     FM290300 09005KT P6SM FEW050 BKN250
     FM290900 15004KT P6SM SCT040 BKN100=



000
FTUS43 KLOT 281356 AAA
TAFGYY
TAF AMD
KGYY 281356Z 2814/2912 17004KT P6SM FEW250
     FM281700 13006KT P6SM FEW050 SCT250
     FM282000 11008KT P6SM SCT250
     FM290300 12005KT P6SM FEW050 BKN250
     FM290900 15004KT P6SM SCT040 BKN100=



000
FTUS43 KLOT 281356 AAA
TAFRFD
TAF AMD
KRFD 281356Z 2814/2912 19003KT P6SM FEW250
     FM281500 18006KT P6SM FEW050 SCT250
     FM282000 17009KT P6SM SCT250
     FM290300 12005KT P6SM FEW050 BKN250
     FM290900 18010KT P6SM -SHRA BKN040 BKN080 PROB30 2909/2912
      -TSRA BKN040CB=



000
FTUS43 KLOT 281356 AAA
TAFDPA
TAF AMD
KDPA 281356Z 2814/2912 17004KT P6SM FEW250
     FM281700 14008KT P6SM FEW050 SCT250
     FM282000 10010KT P6SM SCT250
     FM290300 11005KT P6SM FEW050 BKN250
     FM290900 15004KT P6SM VCSH SCT040 BKN100=



000
FTUS43 KLOT 281356 AAA
TAFORD
TAF AMD
KORD 281356Z 2814/2918 17004KT P6SM FEW250
     FM281700 14008KT P6SM FEW050 SCT250
     FM282000 10010KT P6SM SCT250
     FM290300 11005KT P6SM FEW050 BKN250
     FM290900 15004KT P6SM SCT040 BKN100
     FM291300 18010KT P6SM -SHRA BKN040 BKN080 PROB30 2913/2918
      -TSRA BKN040CB=



000
FTUS43 KLOT 281136
TAFMDW
TAF
KMDW 281136Z 2812/2912 18003KT P6SM FEW250
     FM281500 15005KT P6SM FEW050 SCT250
     FM282000 11010KT P6SM SCT250
     FM290300 12005KT P6SM FEW050 BKN250
     FM290900 15004KT P6SM SCT040 BKN100=



000
FTUS43 KLOT 281136
TAFGYY
TAF
KGYY 281136Z 2812/2912 VRB03KT P6SM FEW250
     FM281500 14008KT P6SM FEW050 SCT250
     FM282000 11008KT P6SM SCT250
     FM290300 12005KT P6SM FEW050 BKN250
     FM290900 15004KT P6SM SCT040 BKN100=



000
FTUS43 KLOT 281136
TAFDPA
TAF
KDPA 281136Z 2812/2912 VRB02KT P6SM FEW250
     FM281500 16004KT P6SM FEW050 SCT250
     FM282000 12008KT P6SM SCT250
     FM290300 12005KT P6SM FEW050 BKN250
     FM290900 15004KT P6SM VCSH SCT040 BKN100=



000
FTUS43 KLOT 281136
TAFRFD
TAF
KRFD 281136Z 2812/2912 VRB03KT P6SM FEW250
     FM281500 20005KT P6SM FEW050 SCT250
     FM282000 16008KT P6SM SCT250
     FM290300 12005KT P6SM FEW050 BKN250
     FM290900 18010KT P6SM -SHRA BKN040 BKN080 PROB30 2909/2912
      -TSRA BKN040CB=



000
FTUS43 KLOT 281136
TAFORD
TAF
KORD 281136Z 2812/2918 VRB03KT P6SM FEW250
     FM281500 16005KT P6SM FEW050 SCT250
     FM282000 10010KT P6SM SCT250
     FM290300 12005KT P6SM FEW050 BKN250
     FM290900 15004KT P6SM SCT040 BKN100
     FM291300 18010KT P6SM -SHRA BKN040 BKN080 PROB30 2913/2918
      -TSRA BKN040CB=



000
FTUS43 KLOT 281136
TAFMDW
TAF
KMDW 281136Z 2812/2912 18003KT P6SM FEW250
     FM281500 15005KT P6SM FEW050 SCT250
     FM282000 11010KT P6SM SCT250
     FM290300 12005KT P6SM FEW050 BKN250
     FM290900 15004KT P6SM SCT040 BKN100=



000
FTUS43 KLOT 281136
TAFRFD
TAF
KRFD 281136Z 2812/2912 VRB03KT P6SM FEW250
     FM281500 20005KT P6SM FEW050 SCT250
     FM282000 16008KT P6SM SCT250
     FM290300 12005KT P6SM FEW050 BKN250
     FM290900 18010KT P6SM -SHRA BKN040 BKN080 PROB30 2909/2912
      -TSRA BKN040CB=



000
FTUS43 KLOT 281136
TAFORD
TAF
KORD 281136Z 2812/2918 VRB03KT P6SM FEW250
     FM281500 16005KT P6SM FEW050 SCT250
     FM282000 10010KT P6SM SCT250
     FM290300 12005KT P6SM FEW050 BKN250
     FM290900 15004KT P6SM SCT040 BKN100
     FM291300 18010KT P6SM -SHRA BKN040 BKN080 PROB30 2913/2918
      -TSRA BKN040CB=



000
FTUS43 KLOT 281136
TAFDPA
TAF
KDPA 281136Z 2812/2912 VRB02KT P6SM FEW250
     FM281500 16004KT P6SM FEW050 SCT250
     FM282000 12008KT P6SM SCT250
     FM290300 12005KT P6SM FEW050 BKN250
     FM290900 15004KT P6SM VCSH SCT040 BKN100=



000
FTUS43 KLOT 281136
TAFGYY
TAF
KGYY 281136Z 2812/2912 VRB03KT P6SM FEW250
     FM281500 14008KT P6SM FEW050 SCT250
     FM282000 11008KT P6SM SCT250
     FM290300 12005KT P6SM FEW050 BKN250
     FM290900 15004KT P6SM SCT040 BKN100=



000
FTUS43 KLOT 281136
TAFGYY
TAF
KGYY 281136Z 2812/2912 VRB03KT P6SM FEW250
     FM281500 14008KT P6SM FEW050 SCT250
     FM282000 11008KT P6SM SCT250
     FM290300 12005KT P6SM FEW050 BKN250
     FM290900 15004KT P6SM SCT040 BKN100=



000
FTUS43 KLOT 281136
TAFGYY
TAF
KGYY 281136Z 2812/2912 VRB03KT P6SM FEW250
     FM281500 14008KT P6SM FEW050 SCT250
     FM282000 11008KT P6SM SCT250
     FM290300 12005KT P6SM FEW050 BKN250
     FM290900 15004KT P6SM SCT040 BKN100=



000
FTUS43 KLOT 280528
TAFGYY
TAF
KGYY 280528Z 2806/2906 VRB03KT P6SM SKC
     FM281500 14008KT P6SM FEW050
     FM282000 11008KT P6SM SCT250
     FM290300 12005KT P6SM FEW050 BKN250=



000
FTUS43 KLOT 280528
TAFGYY
TAF
KGYY 280528Z 2806/2906 VRB03KT P6SM SKC
     FM281500 14008KT P6SM FEW050
     FM282000 11008KT P6SM SCT250
     FM290300 12005KT P6SM FEW050 BKN250=



000
FTUS43 KLOT 280528
TAFRFD
TAF
KRFD 280528Z 2806/2906 VRB03KT P6SM FEW250
     FM281500 20005KT P6SM FEW050
     FM282000 16008KT P6SM SCT250
     FM290300 12005KT P6SM FEW050 BKN250=



000
FTUS43 KLOT 280528
TAFORD
TAF
KORD 280528Z 2806/2912 VRB03KT P6SM SKC
     FM281500 16005KT P6SM FEW050
     FM282000 10010KT P6SM SCT250
     FM290300 12005KT P6SM FEW050 BKN250
     FM290900 15004KT P6SM SCT040 BKN100 PROB30 2909/2912 -SHRA=



000
FTUS43 KLOT 280528
TAFMDW
TAF
KMDW 280528Z 2806/2906 18003KT P6SM SKC
     FM281500 15005KT P6SM FEW050
     FM282000 11010KT P6SM SCT250
     FM290300 12005KT P6SM FEW050 BKN250=



000
FTUS43 KLOT 280528
TAFGYY
TAF
KGYY 280528Z 2806/2906 VRB03KT P6SM SKC
     FM281500 14008KT P6SM FEW050
     FM282000 11008KT P6SM SCT250
     FM290300 12005KT P6SM FEW050 BKN250=



000
FTUS43 KLOT 280528
TAFMDW
TAF
KMDW 280528Z 2806/2906 18003KT P6SM SKC
     FM281500 15005KT P6SM FEW050
     FM282000 11010KT P6SM SCT250
     FM290300 12005KT P6SM FEW050 BKN250=



000
FTUS43 KLOT 280528
TAFDPA
TAF
KDPA 280528Z 2806/2906 VRB02KT P6SM SKC
     FM281500 16004KT P6SM FEW050
     FM282000 12008KT P6SM SCT250
     FM290300 12005KT P6SM FEW050 BKN250=



000
FTUS43 KLOT 280528
TAFORD
TAF
KORD 280528Z 2806/2912 VRB03KT P6SM SKC
     FM281500 16005KT P6SM FEW050
     FM282000 10010KT P6SM SCT250
     FM290300 12005KT P6SM FEW050 BKN250
     FM290900 15004KT P6SM SCT040 BKN100 PROB30 2909/2912 -SHRA=



000
FTUS43 KLOT 280528
TAFGYY
TAF
KGYY 280528Z 2806/2906 VRB03KT P6SM SKC
     FM281500 14008KT P6SM FEW050
     FM282000 11008KT P6SM SCT250
     FM290300 12005KT P6SM FEW050 BKN250=



000
FTUS43 KLOT 280528
TAFRFD
TAF
KRFD 280528Z 2806/2906 VRB03KT P6SM FEW250
     FM281500 20005KT P6SM FEW050
     FM282000 16008KT P6SM SCT250
     FM290300 12005KT P6SM FEW050 BKN250=



000
FTUS43 KLOT 280528
TAFDPA
TAF
KDPA 280528Z 2806/2906 VRB02KT P6SM SKC
     FM281500 16004KT P6SM FEW050
     FM282000 12008KT P6SM SCT250
     FM290300 12005KT P6SM FEW050 BKN250=



000
FTUS43 KLOT 280241 AAA
TAFRFD
TAF AMD
KRFD 280241Z 2803/2824 VRB03KT P6SM FEW250
     FM281500 15008KT P6SM FEW050
     FM282000 12010KT P6SM SKC=



000
FTUS43 KLOT 280241 AAA
TAFGYY
TAF AMD
KGYY 280241Z 2803/2824 VRB03KT P6SM SKC
     FM281500 15008KT P6SM FEW050
     FM282000 09010KT P6SM SKC=



000
FTUS43 KLOT 280241 AAA
TAFMDW
TAF AMD
KMDW 280241Z 2803/2824 10004KT P6SM SKC
     FM281500 15008KT P6SM FEW050
     FM282000 09010KT P6SM SKC=



000
FTUS43 KLOT 280241 AAA
TAFGYY
TAF AMD
KGYY 280241Z 2803/2824 VRB03KT P6SM SKC
     FM281500 15008KT P6SM FEW050
     FM282000 09010KT P6SM SKC=



000
FTUS43 KLOT 280241 AAA
TAFDPA
TAF AMD
KDPA 280241Z 2803/2824 VRB02KT P6SM SKC
     FM281500 15007KT P6SM FEW050
     FM282000 11010KT P6SM SKC=



000
FTUS43 KLOT 280241 AAA
TAFORD
TAF AMD
KORD 280241Z 2803/2906 VRB03KT P6SM SKC
     FM281500 15008KT P6SM FEW050
     FM282000 09010KT P6SM SKC
     FM290300 13007KT P6SM SCT200=



000
FTUS43 KLOT 280241 AAA
TAFGYY
TAF AMD
KGYY 280241Z 2803/2824 VRB03KT P6SM SKC
     FM281500 15008KT P6SM FEW050
     FM282000 09010KT P6SM SKC=



000
FTUS43 KLOT 280241 AAA
TAFGYY
TAF AMD
KGYY 280241Z 2803/2824 VRB03KT P6SM SKC
     FM281500 15008KT P6SM FEW050
     FM282000 09010KT P6SM SKC=



000
FTUS43 KLOT 280241 AAA
TAFDPA
TAF AMD
KDPA 280241Z 2803/2824 VRB02KT P6SM SKC
     FM281500 15007KT P6SM FEW050
     FM282000 11010KT P6SM SKC=



000
FTUS43 KLOT 280241 AAA
TAFORD
TAF AMD
KORD 280241Z 2803/2906 VRB03KT P6SM SKC
     FM281500 15008KT P6SM FEW050
     FM282000 09010KT P6SM SKC
     FM290300 13007KT P6SM SCT200=



000
FTUS43 KLOT 280241 AAA
TAFMDW
TAF AMD
KMDW 280241Z 2803/2824 10004KT P6SM SKC
     FM281500 15008KT P6SM FEW050
     FM282000 09010KT P6SM SKC=



000
FTUS43 KLOT 280241 AAA
TAFRFD
TAF AMD
KRFD 280241Z 2803/2824 VRB03KT P6SM FEW250
     FM281500 15008KT P6SM FEW050
     FM282000 12010KT P6SM SKC=



000
FTUS43 KLOT 272334
TAFMDW
TAF
KMDW 272334Z 2800/2824 02005KT P6SM FEW040
     FM280200 10003KT P6SM SKC
     FM281500 15008KT P6SM FEW050
     FM282000 09010KT P6SM SKC=



000
FTUS43 KLOT 272334
TAFRFD
TAF
KRFD 272334Z 2800/2824 32007KT P6SM FEW040
     FM280200 VRB03KT P6SM SKC
     FM281500 15008KT P6SM FEW050
     FM282000 12010KT P6SM SKC=



000
FTUS43 KLOT 272334
TAFGYY
TAF
KGYY 272334Z 2800/2824 01005KT P6SM FEW040
     FM280200 VRB03KT P6SM SKC
     FM281500 15008KT P6SM FEW050
     FM282000 09010KT P6SM SKC=



000
FTUS43 KLOT 272334
TAFORD
TAF
KORD 272334Z 2800/2906 02005KT P6SM FEW040
     FM280200 VRB03KT P6SM SKC
     FM281500 15008KT P6SM FEW050
     FM282000 09010KT P6SM SKC
     FM290300 13007KT P6SM SCT200=



000
FTUS43 KLOT 272334
TAFDPA
TAF
KDPA 272334Z 2800/2824 35008KT P6SM SCT050
     FM280200 VRB03KT P6SM SKC
     FM281500 15007KT P6SM FEW050
     FM282000 11010KT P6SM SKC=



000
FTUS43 KLOT 272334
TAFGYY
TAF
KGYY 272334Z 2800/2824 01005KT P6SM FEW040
     FM280200 VRB03KT P6SM SKC
     FM281500 15008KT P6SM FEW050
     FM282000 09010KT P6SM SKC=



000
FTUS43 KLOT 272334
TAFMDW
TAF
KMDW 272334Z 2800/2824 02005KT P6SM FEW040
     FM280200 10003KT P6SM SKC
     FM281500 15008KT P6SM FEW050
     FM282000 09010KT P6SM SKC=



000
FTUS43 KLOT 272334
TAFRFD
TAF
KRFD 272334Z 2800/2824 32007KT P6SM FEW040
     FM280200 VRB03KT P6SM SKC
     FM281500 15008KT P6SM FEW050
     FM282000 12010KT P6SM SKC=



000
FTUS43 KLOT 272334
TAFGYY
TAF
KGYY 272334Z 2800/2824 01005KT P6SM FEW040
     FM280200 VRB03KT P6SM SKC
     FM281500 15008KT P6SM FEW050
     FM282000 09010KT P6SM SKC=



000
FTUS43 KLOT 272334
TAFORD
TAF
KORD 272334Z 2800/2906 02005KT P6SM FEW040
     FM280200 VRB03KT P6SM SKC
     FM281500 15008KT P6SM FEW050
     FM282000 09010KT P6SM SKC
     FM290300 13007KT P6SM SCT200=



000
FTUS43 KLOT 272334
TAFDPA
TAF
KDPA 272334Z 2800/2824 35008KT P6SM SCT050
     FM280200 VRB03KT P6SM SKC
     FM281500 15007KT P6SM FEW050
     FM282000 11010KT P6SM SKC=



000
FTUS43 KLOT 272334
TAFGYY
TAF
KGYY 272334Z 2800/2824 01005KT P6SM FEW040
     FM280200 VRB03KT P6SM SKC
     FM281500 15008KT P6SM FEW050
     FM282000 09010KT P6SM SKC=



000
FTUS43 KLOT 272206 AAC
TAFORD
TAF AMD
KORD 272206Z 2722/2824 34008KT P6SM SCT050 BKN070
     FM280000 05005KT P6SM FEW040
     FM280100 VRB03KT P6SM SKC
     FM281500 15012KT P6SM FEW050
     FM282100 11010KT P6SM SKC=



000
FTUS43 KLOT 272206 AAB
TAFMDW
TAF AMD
KMDW 272206Z 2722/2818 33010KT P6SM SCT050 BKN070
     FM280000 05005KT P6SM FEW040
     FM280100 10003KT P6SM SKC
     FM281500 15012KT P6SM FEW050=



000
FTUS43 KLOT 272206 AAB
TAFGYY
TAF AMD
KGYY 272206Z 2722/2818 32010G20KT P6SM SCT035 BKN050
     FM280000 05005KT P6SM FEW040
     FM280100 VRB03KT P6SM SKC
     FM281500 15012KT P6SM FEW050=



000
FTUS43 KLOT 272206 AAB
TAFDPA
TAF AMD
KDPA 272206Z 2722/2818 35010KT P6SM SCT050 SCT070
     FM280100 VRB03KT P6SM SKC
     FM281500 15012KT P6SM FEW050=



000
FTUS43 KLOT 272206 AAB
TAFRFD
TAF AMD
KRFD 272206Z 2722/2818 31007KT P6SM FEW040
     FM280100 VRB03KT P6SM SKC
     FM281500 15012KT P6SM FEW050=



000
FTUS43 KLOT 271957 AAA
TAFGYY
TAF AMD
KGYY 271957Z 2720/2818 29011G22KT P6SM SCT035 BKN050
     FM272300 05005KT P6SM FEW040
     FM280100 VRB03KT P6SM SKC
     FM281500 15012KT P6SM FEW050=



000
FTUS43 KLOT 271957 AAB
TAFORD
TAF AMD
KORD 271957Z 2720/2824 29013G20KT P6SM VCSH SCT050 BKN060
      TEMPO 2720/2721 6SM -SHRA BKN035
     FM272300 05005KT P6SM FEW040
     FM280100 VRB03KT P6SM SKC
     FM281500 15012KT P6SM FEW050
     FM282100 11010KT P6SM SKC=



000
FTUS43 KLOT 271957 AAA
TAFDPA
TAF AMD
KDPA 271957Z 2720/2818 29011G22KT P6SM VCSH SCT050 BKN060
     FM272300 05005KT P6SM FEW040
     FM280100 VRB03KT P6SM SKC
     FM281500 15012KT P6SM FEW050=



000
FTUS43 KLOT 271957 AAA
TAFMDW
TAF AMD
KMDW 271957Z 2720/2818 29012G22KT P6SM SCT050 BKN060
     FM272300 05005KT P6SM FEW040
     FM280100 10003KT P6SM SKC
     FM281500 15012KT P6SM FEW050=



000
FTUS43 KLOT 271957 AAA
TAFGYY
TAF AMD
KGYY 271957Z 2720/2818 29011G22KT P6SM SCT035 BKN050
     FM272300 05005KT P6SM FEW040
     FM280100 VRB03KT P6SM SKC
     FM281500 15012KT P6SM FEW050=



000
FTUS43 KLOT 271957 AAA
TAFRFD
TAF AMD
KRFD 271957Z 2720/2818 31012KT P6SM SCT050 BKN060
     FM272300 31005KT P6SM FEW040
     FM280100 VRB03KT P6SM SKC
     FM281500 15012KT P6SM FEW050=



000
FTUS43 KLOT 271856 AAA
TAFORD
TAF AMD
KORD 271856Z 2719/2824 28013G24KT P6SM VCSH SCT040 BKN060
     FM272000 29013KT P6SM SCT035
     FM272300 05005KT P6SM FEW040
     FM280100 VRB03KT P6SM SKC
     FM281500 15012KT P6SM FEW050=



000
FTUS43 KLOT 271856 AAA
TAFORD
TAF AMD
KORD 271856Z 2719/2824 28013G24KT P6SM VCSH SCT040 BKN060
     FM272000 29013KT P6SM SCT035
     FM272300 05005KT P6SM FEW040
     FM280100 VRB03KT P6SM SKC
     FM281500 15012KT P6SM FEW050=



000
FTUS43 KLOT 271728
TAFMDW
TAF
KMDW 271728Z 2718/2818 26013G22KT P6SM VCSH BKN040 BKN200
     FM272000 29011KT P6SM SCT035
     FM272300 05005KT P6SM FEW040
     FM280100 10003KT P6SM SKC
     FM281500 15012KT P6SM FEW050=



000
FTUS43 KLOT 271728
TAFGYY
TAF
KGYY 271728Z 2718/2818 26014G22KT P6SM VCSH BKN035 BKN200
     FM272000 29011KT P6SM SCT035
     FM272300 05005KT P6SM FEW040
     FM280100 VRB03KT P6SM SKC
     FM281500 15012KT P6SM FEW050=



000
FTUS43 KLOT 271728
TAFDPA
TAF
KDPA 271728Z 2718/2818 26014G22KT P6SM VCSH BKN035 BKN200
     FM272000 29011KT P6SM SCT035
     FM272300 05005KT P6SM FEW040
     FM280100 VRB03KT P6SM SKC
     FM281500 15012KT P6SM FEW050=



000
FTUS43 KLOT 271728
TAFORD
TAF
KORD 271728Z 2718/2824 25013G22KT P6SM VCSH BKN040 BKN200
     FM272000 29011KT P6SM SCT035
     FM272300 05005KT P6SM FEW040
     FM280100 VRB03KT P6SM SKC
     FM281500 15012KT P6SM FEW050=



000
FTUS43 KLOT 271728
TAFRFD
TAF
KRFD 271728Z 2718/2818 29016G22KT P6SM VCSH BKN035 BKN200
     FM271900 29011KT P6SM SCT035
     FM272300 25005KT P6SM FEW040
     FM280100 VRB03KT P6SM SKC
     FM281500 15012KT P6SM FEW050=



000
FTUS43 KLOT 271728
TAFGYY
TAF
KGYY 271728Z 2718/2818 26014G22KT P6SM VCSH BKN035 BKN200
     FM272000 29011KT P6SM SCT035
     FM272300 05005KT P6SM FEW040
     FM280100 VRB03KT P6SM SKC
     FM281500 15012KT P6SM FEW050=



000
FTUS43 KLOT 271531 AAB
TAFGYY
TAF AMD
KGYY 271531Z 2716/2812 25012G23KT P6SM BKN030
     FM271700 27012KT P6SM BKN030
      TEMPO 2718/2720 6SM -SHRA BKN025
     FM272000 29010KT P6SM SCT040
     FM272300 05005KT P6SM FEW040
     FM280100 VRB03KT P6SM SKC=



000
FTUS43 KLOT 271531 AAB
TAFDPA
TAF AMD
KDPA 271531Z 2716/2812 25015KT P6SM BKN030
     FM271700 27012KT P6SM BKN030
      TEMPO 2717/2719 6SM -SHRA BKN025
     FM272000 29010KT P6SM SCT040
     FM272300 05005KT P6SM FEW040
     FM280100 VRB03KT P6SM SKC=



000
FTUS43 KLOT 271531 AAB
TAFMDW
TAF AMD
KMDW 271531Z 2716/2812 25012G21KT P6SM BKN030
     FM271700 27012KT P6SM BKN030
      TEMPO 2717/2719 6SM -SHRA BKN025
     FM272000 29010KT P6SM SCT040
     FM272300 05005KT P6SM FEW040
     FM280100 10003KT P6SM SKC=



000
FTUS43 KLOT 271531 AAB
TAFRFD
TAF AMD
KRFD 271531Z 2716/2812 28010KT P6SM VCSH SCT015 BKN025
     FM271900 30010KT P6SM SCT040 SCT250
     FM272300 25005KT P6SM FEW040
     FM280100 VRB03KT P6SM SKC=



000
FTUS43 KLOT 271531 AAB
TAFDPA
TAF AMD
KDPA 271531Z 2716/2812 25015KT P6SM BKN030
     FM271700 27012KT P6SM BKN030
      TEMPO 2717/2719 6SM -SHRA BKN025
     FM272000 29010KT P6SM SCT040
     FM272300 05005KT P6SM FEW040
     FM280100 VRB03KT P6SM SKC=



000
FTUS43 KLOT 271531 AAB
TAFORD
TAF AMD
KORD 271531Z 2716/2818 25012G22KT P6SM BKN030
     FM271700 27012KT P6SM BKN030
      TEMPO 2717/2719 6SM -SHRA BKN025
     FM272000 29010KT P6SM SCT040
     FM272300 05005KT P6SM FEW040
     FM280100 VRB03KT P6SM SKC
     FM281500 20006KT P6SM SCT250=



000
FTUS43 KLOT 271531 AAB
TAFRFD
TAF AMD
KRFD 271531Z 2716/2812 28010KT P6SM VCSH SCT015 BKN025
     FM271900 30010KT P6SM SCT040 SCT250
     FM272300 25005KT P6SM FEW040
     FM280100 VRB03KT P6SM SKC=



000
FTUS43 KLOT 271531 AAB
TAFGYY
TAF AMD
KGYY 271531Z 2716/2812 25012G23KT P6SM BKN030
     FM271700 27012KT P6SM BKN030
      TEMPO 2718/2720 6SM -SHRA BKN025
     FM272000 29010KT P6SM SCT040
     FM272300 05005KT P6SM FEW040
     FM280100 VRB03KT P6SM SKC=



000
FTUS43 KLOT 271531 AAB
TAFMDW
TAF AMD
KMDW 271531Z 2716/2812 25012G21KT P6SM BKN030
     FM271700 27012KT P6SM BKN030
      TEMPO 2717/2719 6SM -SHRA BKN025
     FM272000 29010KT P6SM SCT040
     FM272300 05005KT P6SM FEW040
     FM280100 10003KT P6SM SKC=



000
FTUS43 KLOT 271531 AAB
TAFGYY
TAF AMD
KGYY 271531Z 2716/2812 25012G23KT P6SM BKN030
     FM271700 27012KT P6SM BKN030
      TEMPO 2718/2720 6SM -SHRA BKN025
     FM272000 29010KT P6SM SCT040
     FM272300 05005KT P6SM FEW040
     FM280100 VRB03KT P6SM SKC=



000
FTUS43 KLOT 271531 AAB
TAFORD
TAF AMD
KORD 271531Z 2716/2818 25012G22KT P6SM BKN030
     FM271700 27012KT P6SM BKN030
      TEMPO 2717/2719 6SM -SHRA BKN025
     FM272000 29010KT P6SM SCT040
     FM272300 05005KT P6SM FEW040
     FM280100 VRB03KT P6SM SKC
     FM281500 20006KT P6SM SCT250=



000
FTUS43 KLOT 271341 AAA
TAFGYY
TAF AMD
KGYY 271341Z 2714/2812 24012G18KT P6SM SCT015
      TEMPO 2714/2716 BKN015
     FM271800 27012KT P6SM SCT040 SCT250
     FM272300 36006KT P6SM FEW040
     FM280100 VRB03KT P6SM SKC=



000
FTUS43 KLOT 271341 AAA
TAFMDW
TAF AMD
KMDW 271341Z 2714/2812 24012G18KT P6SM SCT015
      TEMPO 2714/2716 BKN015
     FM271700 27012KT P6SM SCT040 SCT250
      TEMPO 2717/2719 5SM -RA BKN020
     FM272300 05006KT P6SM FEW040
     FM280100 10003KT P6SM SKC=



000
FTUS43 KLOT 271341 AAA
TAFDPA
TAF AMD
KDPA 271341Z 2714/2812 24012G18KT P6SM SCT015
      TEMPO 2714/2716 BKN015
     FM271700 27012KT P6SM SCT040 SCT250
      TEMPO 2717/2719 5SM -RA BKN020
     FM272300 25004KT P6SM FEW040
     FM280100 VRB03KT P6SM SKC=



000
FTUS43 KLOT 271341 AAA
TAFRFD
TAF AMD
KRFD 271341Z 2714/2812 25010KT 5SM -RA OVC013
     FM271600 27012KT P6SM SCT040 SCT250
     FM272300 25005KT P6SM FEW040
     FM280100 VRB03KT P6SM SKC=



000
FTUS43 KLOT 271341 AAA
TAFORD
TAF AMD
KORD 271341Z 2714/2818 24012G18KT P6SM SCT015
      TEMPO 2714/2716 BKN015
     FM271700 27012KT P6SM SCT040 SCT250
      TEMPO 2717/2719 5SM -RA BKN020
     FM272300 05006KT P6SM FEW040
     FM280100 VRB03KT P6SM SKC
     FM281500 20006KT P6SM SCT250=



000
FTUS43 KLOT 271341 AAA
TAFGYY
TAF AMD
KGYY 271341Z 2714/2812 24012G18KT P6SM SCT015
      TEMPO 2714/2716 BKN015
     FM271800 27012KT P6SM SCT040 SCT250
     FM272300 36006KT P6SM FEW040
     FM280100 VRB03KT P6SM SKC=



000
FTUS43 KLOT 271341 AAA
TAFRFD
TAF AMD
KRFD 271341Z 2714/2812 25010KT 5SM -RA OVC013
     FM271600 27012KT P6SM SCT040 SCT250
     FM272300 25005KT P6SM FEW040
     FM280100 VRB03KT P6SM SKC=



000
FTUS43 KLOT 271341 AAA
TAFGYY
TAF AMD
KGYY 271341Z 2714/2812 24012G18KT P6SM SCT015
      TEMPO 2714/2716 BKN015
     FM271800 27012KT P6SM SCT040 SCT250
     FM272300 36006KT P6SM FEW040
     FM280100 VRB03KT P6SM SKC=



000
FTUS43 KLOT 271341 AAA
TAFDPA
TAF AMD
KDPA 271341Z 2714/2812 24012G18KT P6SM SCT015
      TEMPO 2714/2716 BKN015
     FM271700 27012KT P6SM SCT040 SCT250
      TEMPO 2717/2719 5SM -RA BKN020
     FM272300 25004KT P6SM FEW040
     FM280100 VRB03KT P6SM SKC=



000
FTUS43 KLOT 271341 AAA
TAFORD
TAF AMD
KORD 271341Z 2714/2818 24012G18KT P6SM SCT015
      TEMPO 2714/2716 BKN015
     FM271700 27012KT P6SM SCT040 SCT250
      TEMPO 2717/2719 5SM -RA BKN020
     FM272300 05006KT P6SM FEW040
     FM280100 VRB03KT P6SM SKC
     FM281500 20006KT P6SM SCT250=



000
FTUS43 KLOT 271341 AAA
TAFMDW
TAF AMD
KMDW 271341Z 2714/2812 24012G18KT P6SM SCT015
      TEMPO 2714/2716 BKN015
     FM271700 27012KT P6SM SCT040 SCT250
      TEMPO 2717/2719 5SM -RA BKN020
     FM272300 05006KT P6SM FEW040
     FM280100 10003KT P6SM SKC=



000
FTUS43 KLOT 271341 AAA
TAFGYY
TAF AMD
KGYY 271341Z 2714/2812 24012G18KT P6SM SCT015
      TEMPO 2714/2716 BKN015
     FM271800 27012KT P6SM SCT040 SCT250
     FM272300 36006KT P6SM FEW040
     FM280100 VRB03KT P6SM SKC=



000
FTUS43 KLOT 271121
TAFRFD
TAF
KRFD 271121Z 2712/2812 25010KT P6SM VCSH OVC013
     FM271700 27012KT P6SM SCT040 SCT250
     FM272300 25005KT P6SM FEW040
     FM280100 VRB03KT P6SM SKC=



000
FTUS43 KLOT 271121
TAFDPA
TAF
KDPA 271121Z 2712/2812 24012G18KT P6SM SCT020
      TEMPO 2712/2716 BKN015
     FM271800 27012KT P6SM SCT040 SCT250
     FM272300 25004KT P6SM FEW040
     FM280100 VRB03KT P6SM SKC=



000
FTUS43 KLOT 271121
TAFGYY
TAF
KGYY 271121Z 2712/2812 23010KT P6SM SCT040
     FM271300 24012G18KT P6SM SCT025
      TEMPO 2713/2717 BKN025
     FM271800 27012KT P6SM SCT040 SCT250
     FM272300 36006KT P6SM FEW040
     FM280100 VRB03KT P6SM SKC=



000
FTUS43 KLOT 271121
TAFORD
TAF
KORD 271121Z 2712/2818 24012G18KT P6SM SCT015
      TEMPO 2712/2716 BKN015
     FM271800 27012KT P6SM SCT040 SCT250
     FM272300 05006KT P6SM FEW040
     FM280100 VRB03KT P6SM SKC
     FM281500 20006KT P6SM SCT250=



000
FTUS43 KLOT 271121
TAFMDW
TAF
KMDW 271121Z 2712/2812 24012G18KT P6SM SCT020
      TEMPO 2712/2716 BKN015
     FM271800 27012KT P6SM SCT040 SCT250
     FM272300 05006KT P6SM FEW040
     FM280100 10003KT P6SM SKC=



000
FTUS43 KLOT 271121
TAFGYY
TAF
KGYY 271121Z 2712/2812 23010KT P6SM SCT040
     FM271300 24012G18KT P6SM SCT025
      TEMPO 2713/2717 BKN025
     FM271800 27012KT P6SM SCT040 SCT250
     FM272300 36006KT P6SM FEW040
     FM280100 VRB03KT P6SM SKC=



000
FTUS43 KLOT 271121
TAFRFD
TAF
KRFD 271121Z 2712/2812 25010KT P6SM VCSH OVC013
     FM271700 27012KT P6SM SCT040 SCT250
     FM272300 25005KT P6SM FEW040
     FM280100 VRB03KT P6SM SKC=



000
FTUS43 KLOT 271121
TAFDPA
TAF
KDPA 271121Z 2712/2812 24012G18KT P6SM SCT020
      TEMPO 2712/2716 BKN015
     FM271800 27012KT P6SM SCT040 SCT250
     FM272300 25004KT P6SM FEW040
     FM280100 VRB03KT P6SM SKC=



000
FTUS43 KLOT 271121
TAFMDW
TAF
KMDW 271121Z 2712/2812 24012G18KT P6SM SCT020
      TEMPO 2712/2716 BKN015
     FM271800 27012KT P6SM SCT040 SCT250
     FM272300 05006KT P6SM FEW040
     FM280100 10003KT P6SM SKC=



000
FTUS43 KLOT 271121
TAFGYY
TAF
KGYY 271121Z 2712/2812 23010KT P6SM SCT040
     FM271300 24012G18KT P6SM SCT025
      TEMPO 2713/2717 BKN025
     FM271800 27012KT P6SM SCT040 SCT250
     FM272300 36006KT P6SM FEW040
     FM280100 VRB03KT P6SM SKC=



000
FTUS43 KLOT 271121
TAFORD
TAF
KORD 271121Z 2712/2818 24012G18KT P6SM SCT015
      TEMPO 2712/2716 BKN015
     FM271800 27012KT P6SM SCT040 SCT250
     FM272300 05006KT P6SM FEW040
     FM280100 VRB03KT P6SM SKC
     FM281500 20006KT P6SM SCT250=



000
FTUS43 KLOT 271121
TAFGYY
TAF
KGYY 271121Z 2712/2812 23010KT P6SM SCT040
     FM271300 24012G18KT P6SM SCT025
      TEMPO 2713/2717 BKN025
     FM271800 27012KT P6SM SCT040 SCT250
     FM272300 36006KT P6SM FEW040
     FM280100 VRB03KT P6SM SKC=



000
FTUS43 KLOT 270838 AAA
TAFMDW
TAF AMD
KMDW 270838Z 2709/2806 23010KT P6SM SCT040
     FM271300 25012G17KT P6SM SCT025
      TEMPO 2713/2717 BKN025
     FM271800 27012KT P6SM SCT040 SCT250 PROB30 2718/2722 6SM -SHRA
      BKN040
     FM272300 05006KT P6SM FEW040
     FM280100 10003KT P6SM SKC=



000
FTUS43 KLOT 270838 AAA
TAFGYY
TAF AMD
KGYY 270838Z 2709/2806 23010KT P6SM SCT040
     FM271300 25012G17KT P6SM SCT025
      TEMPO 2713/2717 BKN025
     FM271800 27012KT P6SM SCT040 SCT250 PROB30 2719/2723 6SM -SHRA
      BKN040
     FM272300 36006KT P6SM FEW040
     FM280100 VRB03KT P6SM SKC=



000
FTUS43 KLOT 270838 AAA
TAFRFD
TAF AMD
KRFD 270838Z 2709/2806 23010KT P6SM SCT025 BKN040
     FM271200 26010KT P6SM SCT025
      TEMPO 2712/2716 BKN025
     FM271800 27012KT P6SM SCT040 SCT250
     FM272300 05006KT P6SM FEW040
     FM280100 VRB03KT P6SM SKC=



000
FTUS43 KLOT 270838 AAA
TAFDPA
TAF AMD
KDPA 270838Z 2709/2806 23010KT P6SM SCT040
     FM271300 25012G17KT P6SM SCT025
      TEMPO 2713/2717 BKN025
     FM271800 27012KT P6SM SCT040 SCT250 PROB30 2718/2722 6SM -SHRA
      BKN040
     FM272300 05006KT P6SM FEW040
     FM280100 VRB03KT P6SM SKC=



000
FTUS43 KLOT 270838 AAA
TAFORD
TAF AMD
KORD 270838Z 2709/2812 23010KT P6SM SCT040
     FM271300 25012G18KT P6SM SCT025
      TEMPO 2713/2717 BKN025
     FM271800 27012KT P6SM SCT040 SCT250 PROB30 2718/2722 6SM -SHRA
      BKN040
     FM272300 05006KT P6SM FEW040
     FM280100 VRB03KT P6SM SKC=



000
FTUS43 KLOT 270838 AAA
TAFGYY
TAF AMD
KGYY 270838Z 2709/2806 23010KT P6SM SCT040
     FM271300 25012G17KT P6SM SCT025
      TEMPO 2713/2717 BKN025
     FM271800 27012KT P6SM SCT040 SCT250 PROB30 2719/2723 6SM -SHRA
      BKN040
     FM272300 36006KT P6SM FEW040
     FM280100 VRB03KT P6SM SKC=



000
FTUS43 KLOT 270838 AAA
TAFRFD
TAF AMD
KRFD 270838Z 2709/2806 23010KT P6SM SCT025 BKN040
     FM271200 26010KT P6SM SCT025
      TEMPO 2712/2716 BKN025
     FM271800 27012KT P6SM SCT040 SCT250
     FM272300 05006KT P6SM FEW040
     FM280100 VRB03KT P6SM SKC=



000
FTUS43 KLOT 270838 AAA
TAFGYY
TAF AMD
KGYY 270838Z 2709/2806 23010KT P6SM SCT040
     FM271300 25012G17KT P6SM SCT025
      TEMPO 2713/2717 BKN025
     FM271800 27012KT P6SM SCT040 SCT250 PROB30 2719/2723 6SM -SHRA
      BKN040
     FM272300 36006KT P6SM FEW040
     FM280100 VRB03KT P6SM SKC=



000
FTUS43 KLOT 270838 AAA
TAFDPA
TAF AMD
KDPA 270838Z 2709/2806 23010KT P6SM SCT040
     FM271300 25012G17KT P6SM SCT025
      TEMPO 2713/2717 BKN025
     FM271800 27012KT P6SM SCT040 SCT250 PROB30 2718/2722 6SM -SHRA
      BKN040
     FM272300 05006KT P6SM FEW040
     FM280100 VRB03KT P6SM SKC=



000
FTUS43 KLOT 270838 AAA
TAFMDW
TAF AMD
KMDW 270838Z 2709/2806 23010KT P6SM SCT040
     FM271300 25012G17KT P6SM SCT025
      TEMPO 2713/2717 BKN025
     FM271800 27012KT P6SM SCT040 SCT250 PROB30 2718/2722 6SM -SHRA
      BKN040
     FM272300 05006KT P6SM FEW040
     FM280100 10003KT P6SM SKC=



000
FTUS43 KLOT 270525
TAFDPA
TAF
KDPA 270525Z 2706/2806 22012G20KT P6SM VCSH SCT035 BKN080
     FM270900 23010KT P6SM BKN015
     FM271300 25012G17KT P6SM SCT025
     FM271800 27012KT P6SM SCT040 SCT250 PROB30 2718/2722 6SM -SHRA
      BKN040
     FM272300 05006KT P6SM FEW040
     FM280100 VRB03KT P6SM SKC=



000
FTUS43 KLOT 270525
TAFMDW
TAF
KMDW 270525Z 2706/2806 22012G20KT P6SM VCSH SCT035 BKN080
     FM270900 23010KT P6SM BKN015
     FM271300 25012G17KT P6SM SCT025
     FM271800 27012KT P6SM SCT040 SCT250 PROB30 2718/2722 6SM -SHRA
      BKN040
     FM272300 05006KT P6SM FEW040
     FM280100 10003KT P6SM SKC=



000
FTUS43 KLOT 270525
TAFGYY
TAF
KGYY 270525Z 2706/2806 22012G20KT P6SM VCSH SCT035 BKN080
     FM270900 23010KT P6SM BKN015
     FM271300 25012G17KT P6SM SCT025
     FM271800 27012KT P6SM SCT040 SCT250 PROB30 2719/2723 6SM -SHRA
      BKN040
     FM272300 36006KT P6SM FEW040
     FM280100 VRB03KT P6SM SKC=



000
FTUS43 KLOT 270525
TAFORD
TAF
KORD 270525Z 2706/2812 22012G20KT P6SM VCSH SCT035 BKN080
     FM270900 23010KT P6SM BKN015
     FM271300 25012G18KT P6SM SCT025
     FM271800 27012KT P6SM SCT040 SCT250 PROB30 2718/2722 6SM -SHRA
      BKN040
     FM272300 05006KT P6SM FEW040
     FM280100 VRB03KT P6SM SKC=



000
FTUS43 KLOT 270525
TAFRFD
TAF
KRFD 270525Z 2706/2806 22009KT P6SM SCT035 BKN080
     FM270900 23010KT 5SM BR BKN015
     FM271300 26010KT P6SM SCT025
     FM271800 27012KT P6SM SCT040 SCT250
     FM272300 05006KT P6SM FEW040
     FM280100 VRB03KT P6SM SKC=



000
FTUS43 KLOT 270525
TAFGYY
TAF
KGYY 270525Z 2706/2806 22012G20KT P6SM VCSH SCT035 BKN080
     FM270900 23010KT P6SM BKN015
     FM271300 25012G17KT P6SM SCT025
     FM271800 27012KT P6SM SCT040 SCT250 PROB30 2719/2723 6SM -SHRA
      BKN040
     FM272300 36006KT P6SM FEW040
     FM280100 VRB03KT P6SM SKC=



000
FTUS43 KLOT 270525
TAFDPA
TAF
KDPA 270525Z 2706/2806 22012G20KT P6SM VCSH SCT035 BKN080
     FM270900 23010KT P6SM BKN015
     FM271300 25012G17KT P6SM SCT025
     FM271800 27012KT P6SM SCT040 SCT250 PROB30 2718/2722 6SM -SHRA
      BKN040
     FM272300 05006KT P6SM FEW040
     FM280100 VRB03KT P6SM SKC=



000
FTUS43 KLOT 270525
TAFGYY
TAF
KGYY 270525Z 2706/2806 22012G20KT P6SM VCSH SCT035 BKN080
     FM270900 23010KT P6SM BKN015
     FM271300 25012G17KT P6SM SCT025
     FM271800 27012KT P6SM SCT040 SCT250 PROB30 2719/2723 6SM -SHRA
      BKN040
     FM272300 36006KT P6SM FEW040
     FM280100 VRB03KT P6SM SKC=



000
FTUS43 KLOT 270525
TAFMDW
TAF
KMDW 270525Z 2706/2806 22012G20KT P6SM VCSH SCT035 BKN080
     FM270900 23010KT P6SM BKN015
     FM271300 25012G17KT P6SM SCT025
     FM271800 27012KT P6SM SCT040 SCT250 PROB30 2718/2722 6SM -SHRA
      BKN040
     FM272300 05006KT P6SM FEW040
     FM280100 10003KT P6SM SKC=



000
FTUS43 KLOT 270525
TAFRFD
TAF
KRFD 270525Z 2706/2806 22009KT P6SM SCT035 BKN080
     FM270900 23010KT 5SM BR BKN015
     FM271300 26010KT P6SM SCT025
     FM271800 27012KT P6SM SCT040 SCT250
     FM272300 05006KT P6SM FEW040
     FM280100 VRB03KT P6SM SKC=



000
FTUS43 KLOT 270525
TAFORD
TAF
KORD 270525Z 2706/2812 22012G20KT P6SM VCSH SCT035 BKN080
     FM270900 23010KT P6SM BKN015
     FM271300 25012G18KT P6SM SCT025
     FM271800 27012KT P6SM SCT040 SCT250 PROB30 2718/2722 6SM -SHRA
      BKN040
     FM272300 05006KT P6SM FEW040
     FM280100 VRB03KT P6SM SKC=



000
FTUS43 KLOT 270259 AAB
TAFGYY
TAF AMD
KGYY 270259Z 2703/2724 22010KT P6SM VCSH SCT035 BKN090
     FM270900 23010KT P6SM BKN015
     FM271300 25012G17KT P6SM SCT025
     FM271800 27012KT P6SM SCT040 SCT250 PROB30 2719/2723 6SM -SHRA
      BKN040
     FM272300 36006KT P6SM FEW040=



000
FTUS43 KLOT 270259 AAB
TAFORD
TAF AMD
KORD 270259Z 2703/2806 22012KT P6SM VCSH SCT035 BKN090
     FM270900 23010KT P6SM BKN015
     FM271300 25012G17KT P6SM SCT025
     FM271800 27012KT P6SM SCT040 SCT250 PROB30 2718/2722 6SM -SHRA
      BKN040
     FM280000 05006KT P6SM FEW040=



000
FTUS43 KLOT 270259 AAA
TAFRFD
TAF AMD
KRFD 270259Z 2703/2724 22012KT P6SM VCSH SCT035 BKN090
      TEMPO 2703/2706 5SM -SHRA
     FM270600 23009KT P6SM SCT035 BKN250
     FM270900 23010KT 5SM BR BKN015
     FM271300 26010KT P6SM SCT025=



000
FTUS43 KLOT 270259 AAB
TAFDPA
TAF AMD
KDPA 270259Z 2703/2724 22010KT P6SM VCSH SCT035 BKN090
     FM270900 23010KT P6SM BKN015
     FM271300 25012G17KT P6SM SCT025
     FM271800 27012KT P6SM SCT040 SCT250 PROB30 2718/2722 6SM -SHRA
      BKN040
     FM272300 05006KT P6SM FEW040=



000
FTUS43 KLOT 270259 AAB
TAFMDW
TAF AMD
KMDW 270259Z 2703/2724 22012KT P6SM VCSH SCT035 BKN090
     FM270900 23010KT P6SM BKN015
     FM271300 25012G17KT P6SM SCT025
     FM271800 27012KT P6SM SCT040 SCT250 PROB30 2718/2722 6SM -SHRA
      BKN040
     FM272300 05006KT P6SM FEW040=



000
FTUS43 KLOT 270259 AAB
TAFGYY
TAF AMD
KGYY 270259Z 2703/2724 22010KT P6SM VCSH SCT035 BKN090
     FM270900 23010KT P6SM BKN015
     FM271300 25012G17KT P6SM SCT025
     FM271800 27012KT P6SM SCT040 SCT250 PROB30 2719/2723 6SM -SHRA
      BKN040
     FM272300 36006KT P6SM FEW040=



000
FTUS43 KLOT 270153 AAA
TAFGYY
TAF AMD
KGYY 270153Z 2702/2724 22011KT P6SM VCSH SCT035 BKN090
     FM270900 23010KT P6SM BKN015
     FM271300 25012G17KT P6SM SCT025
     FM271800 27012KT P6SM SCT040 SCT250 PROB30 2719/2723 6SM -SHRA
      BKN040
     FM272300 36006KT P6SM FEW040=



000
FTUS43 KLOT 270153 AAA
TAFGYY
TAF AMD
KGYY 270153Z 2702/2724 22011KT P6SM VCSH SCT035 BKN090
     FM270900 23010KT P6SM BKN015
     FM271300 25012G17KT P6SM SCT025
     FM271800 27012KT P6SM SCT040 SCT250 PROB30 2719/2723 6SM -SHRA
      BKN040
     FM272300 36006KT P6SM FEW040=



000
FTUS43 KLOT 270146 AAA
TAFDPA
TAF AMD
KDPA 270146Z 2702/2724 22012KT P6SM VCSH SCT035 BKN090
     FM270900 23010KT P6SM BKN015
     FM271300 25012G17KT P6SM SCT025
     FM271800 27012KT P6SM SCT040 SCT250 PROB30 2718/2722 6SM -SHRA
      BKN040
     FM272300 05006KT P6SM FEW040=



000
FTUS43 KLOT 270145 AAA
TAFMDW
TAF AMD
KMDW 270145Z 2702/2724 22012KT P6SM VCSH SCT035 BKN090
     FM270900 23010KT P6SM BKN015
     FM271300 25012G17KT P6SM SCT025
     FM271800 27012KT P6SM SCT040 SCT250 PROB30 2718/2722 6SM -SHRA
      BKN040
     FM272300 05006KT P6SM FEW040=



000
FTUS43 KLOT 270145 AAA
TAFMDW
TAF AMD
KMDW 270145Z 2702/2724 22012KT P6SM VCSH SCT035 BKN090
     FM270900 23010KT P6SM BKN015
     FM271300 25012G17KT P6SM SCT025
     FM271800 27012KT P6SM SCT040 SCT250 PROB30 2718/2722 6SM -SHRA
      BKN040
     FM272300 05006KT P6SM FEW040=



000
FTUS43 KLOT 270144 AAA
TAFORD
TAF AMD
KORD 270144Z 2702/2806 22012KT P6SM VCSH SCT035 BKN090
     FM270900 23010KT P6SM BKN015
     FM271300 25012G17KT P6SM SCT025
     FM271800 27012KT P6SM SCT040 SCT250 PROB30 2718/2722 6SM -SHRA
      BKN040
     FM280000 05006KT P6SM FEW040=



000
FTUS43 KLOT 270144 AAA
TAFORD
TAF AMD
KORD 270144Z 2702/2806 22012KT P6SM VCSH SCT035 BKN090
     FM270900 23010KT P6SM BKN015
     FM271300 25012G17KT P6SM SCT025
     FM271800 27012KT P6SM SCT040 SCT250 PROB30 2718/2722 6SM -SHRA
      BKN040
     FM280000 05006KT P6SM FEW040=



000
FTUS43 KLOT 262359 CCA
TAFMDW
TAF COR
KMDW 262359Z 2700/2724 22014G22KT P6SM SCT035 SCT250
      TEMPO 2700/2701 3SM -SHRA
     FM270300 22012KT P6SM SCT035 BKN250
     FM270900 23010KT P6SM BKN015
     FM271300 25012G17KT P6SM SCT025
     FM271800 27012KT P6SM SCT040 SCT250 PROB30 2718/2722 6SM -SHRA
      BKN040
     FM272300 05006KT P6SM FEW040=



000
FTUS43 KLOT 262339
TAFORD
TAF
KORD 262339Z 2700/2806 22014G22KT P6SM SCT035 SCT250
     FM270300 22012KT P6SM SCT035 BKN250
     FM270900 23010KT P6SM BKN015
     FM271300 25012G17KT P6SM SCT025
     FM271800 27012KT P6SM SCT040 SCT250 PROB30 2718/2722 6SM -SHRA
      BKN040
     FM280000 05006KT P6SM FEW040=



000
FTUS43 KLOT 262339
TAFRFD
TAF
KRFD 262339Z 2700/2724 23015G22KT P6SM SCT035 BKN150
     FM270200 23012KT P6SM SCT030
      TEMPO 2702/2705 5SM -SHRA
     FM270500 23009KT P6SM SCT035 BKN250
     FM270900 23010KT 5SM BR BKN015
     FM271300 26010KT P6SM SCT025=



000
FTUS43 KLOT 262339
TAFGYY
TAF
KGYY 262339Z 2700/2724 22014G21KT P6SM VCSH SCT035 SCT250
     FM270300 22012KT P6SM SCT035 BKN250
     FM270900 23010KT P6SM BKN015
     FM271300 25012G17KT P6SM SCT025
     FM271800 27012KT P6SM SCT040 SCT250 PROB30 2719/2723 6SM -SHRA
      BKN040
     FM272300 36006KT P6SM FEW040=



000
FTUS43 KLOT 262339
TAFMDW
TAF
KMDW 262339Z 2700/2724 22014G22KT P6SM SCT035 SCT250
     FM270300 22012KT P6SM SCT035 BKN250
     FM270900 23010KT P6SM BKN015
     FM271300 25012G17KT P6SM SCT025
     FM271800 27012KT P6SM SCT040 SCT250 PROB30 2718/2722 6SM -SHRA
      BKN040
     FM272300 05006KT P6SM FEW040=



000
FTUS43 KLOT 262339
TAFDPA
TAF
KDPA 262339Z 2700/2724 22014G22KT P6SM SCT035 SCT250
     FM270300 22012KT P6SM SCT035 BKN250
     FM270900 23010KT P6SM BKN015
     FM271300 25012G17KT P6SM SCT025
     FM271800 27012KT P6SM SCT040 SCT250 PROB30 2718/2722 6SM -SHRA
      BKN040
     FM272300 05006KT P6SM FEW040=



000
FTUS43 KLOT 262339
TAFGYY
TAF
KGYY 262339Z 2700/2724 22014G21KT P6SM VCSH SCT035 SCT250
     FM270300 22012KT P6SM SCT035 BKN250
     FM270900 23010KT P6SM BKN015
     FM271300 25012G17KT P6SM SCT025
     FM271800 27012KT P6SM SCT040 SCT250 PROB30 2719/2723 6SM -SHRA
      BKN040
     FM272300 36006KT P6SM FEW040=



000
FTUS43 KLOT 262209 AAB
TAFGYY
TAF AMD
KGYY 262209Z 2622/2718 21013G22KT P6SM VCSH SCT025 BKN100
      TEMPO 2622/2624 5SM -RA BKN025
     FM270000 21010KT P6SM SCT020 BKN035
     FM270500 22011KT P6SM SCT035 BKN250
     FM270900 23009KT 5SM BR BKN015
     FM271300 26012KT P6SM SCT025=



000
FTUS43 KLOT 262209 AAB
TAFGYY
TAF AMD
KGYY 262209Z 2622/2718 21013G22KT P6SM VCSH SCT025 BKN100
      TEMPO 2622/2624 5SM -RA BKN025
     FM270000 21010KT P6SM SCT020 BKN035
     FM270500 22011KT P6SM SCT035 BKN250
     FM270900 23009KT 5SM BR BKN015
     FM271300 26012KT P6SM SCT025=



000
FTUS43 KLOT 262209 AAB
TAFORD
TAF AMD
KORD 262209Z 2622/2724 21016G26KT P6SM VCSH SCT025 BKN100
      TEMPO 2622/2623 3SM RA BKN025
     FM270000 21010KT P6SM SCT020 BKN035
     FM270500 22011KT P6SM SCT035 BKN250
     FM270900 23009KT 5SM BR BKN015
     FM271300 26012KT P6SM SCT025
     FM271800 27012KT P6SM -SHRA SCT025 OVC200=



000
FTUS43 KLOT 262209 AAB
TAFDPA
TAF AMD
KDPA 262209Z 2622/2718 20015G25KT P6SM VCSH SCT035 OVC100
      TEMPO 2622/2623 3SM RA BKN025
     FM270000 21010KT P6SM SCT020 BKN035
     FM270500 22011KT P6SM SCT035 BKN250
     FM270900 23009KT 5SM BR BKN015
     FM271300 26012KT P6SM SCT025=



000
FTUS43 KLOT 262209 AAB
TAFRFD
TAF AMD
KRFD 262209Z 2622/2718 21017G27KT P6SM SCT025 BKN150
     FM270100 23012KT P6SM BKN030
     FM270500 23009KT P6SM SCT035 BKN250
     FM270900 23010KT 5SM BR BKN015
     FM271300 26010KT P6SM SCT025=



000
FTUS43 KLOT 262209 AAB
TAFMDW
TAF AMD
KMDW 262209Z 2622/2718 20016G26KT P6SM VCSH SCT025 BKN100
      TEMPO 2622/2623 3SM RA BKN025
     FM270000 21010KT P6SM SCT020 BKN035
     FM270500 22011KT P6SM SCT035 BKN250
     FM270900 23009KT 5SM BR BKN015
     FM271300 26012KT P6SM SCT025=



000
FTUS43 KLOT 261905 AAA
TAFORD
TAF AMD
KORD 261905Z 2619/2724 21015G24KT P6SM VCSH SCT025 OVC100
      TEMPO 2621/2623 3SM RA BKN020
     FM270000 21010KT P6SM SCT020 BKN035
     FM270500 22011KT P6SM SCT035 BKN250
     FM270900 23009KT 5SM BR BKN015
     FM271300 26012KT P6SM SCT025
     FM271800 27012KT P6SM -SHRA SCT025 OVC200=



000
FTUS43 KLOT 261905 AAA
TAFGYY
TAF AMD
KGYY 261905Z 2619/2718 21012G20KT 6SM -SHRA VCTS BKN020CB OVC025
      TEMPO 2619/2620 3SM RA OVC020
     FM262000 21015G22KT P6SM VCSH SCT025 BKN100
      TEMPO 2621/2624 4SM -RA BKN020
     FM270000 21010KT P6SM SCT020 BKN035
     FM270500 22011KT P6SM SCT035 BKN250
     FM270900 23009KT 5SM BR BKN015
     FM271300 26012KT P6SM SCT025=



000
FTUS43 KLOT 261905 AAA
TAFRFD
TAF AMD
KRFD 261905Z 2619/2718 21014G26KT P6SM SCT025 BKN150
      TEMPO 2620/2622 5SM -RA BKN020
     FM270000 23010KT P6SM BKN030
     FM270500 23009KT P6SM SCT035 BKN250
     FM270900 23010KT 5SM BR BKN015
     FM271300 26010KT P6SM SCT025=



000
FTUS43 KLOT 261905 AAA
TAFDPA
TAF AMD
KDPA 261905Z 2619/2718 20015G22KT P6SM VCSH SCT035 OVC100
      TEMPO 2621/2623 3SM RA BKN020
     FM270000 21010KT P6SM SCT020 BKN035
     FM270500 22011KT P6SM SCT035 BKN250
     FM270900 23009KT 5SM BR BKN015
     FM271300 26012KT P6SM SCT025=



000
FTUS43 KLOT 261905 AAA
TAFMDW
TAF AMD
KMDW 261905Z 2619/2718 20015G23KT P6SM VCSH BKN025 OVC100
      TEMPO 2621/2623 3SM RA BKN020
     FM270000 21010KT P6SM SCT020 BKN035
     FM270500 22011KT P6SM SCT035 BKN250
     FM270900 23009KT 5SM BR BKN015
     FM271300 26012KT P6SM SCT025=



000
FTUS43 KLOT 261905 AAA
TAFGYY
TAF AMD
KGYY 261905Z 2619/2718 21012G20KT 6SM -SHRA VCTS BKN020CB OVC025
      TEMPO 2619/2620 3SM RA OVC020
     FM262000 21015G22KT P6SM VCSH SCT025 BKN100
      TEMPO 2621/2624 4SM -RA BKN020
     FM270000 21010KT P6SM SCT020 BKN035
     FM270500 22011KT P6SM SCT035 BKN250
     FM270900 23009KT 5SM BR BKN015
     FM271300 26012KT P6SM SCT025=



000
FTUS43 KLOT 261728
TAFDPA
TAF
KDPA 261728Z 2618/2718 17012G20KT 5SM -SHRA VCTS BKN020CB OVC025
      TEMPO 2618/2619 2SM RA OVC020
     FM261900 18015G22KT P6SM VCSH BKN025
     FM270000 21010KT P6SM SCT020 BKN035
     FM270500 22011KT P6SM SCT035 BKN250
     FM270900 23009KT 5SM BR BKN015
     FM271300 26012KT P6SM SCT025=



000
FTUS43 KLOT 261728
TAFORD
TAF
KORD 261728Z 2618/2724 16016G25KT 5SM -SHRA VCTS BKN020CB OVC025
      TEMPO 2618/2619 2SM RA OVC020
     FM261900 18015G22KT P6SM VCSH BKN025
     FM270000 21010KT P6SM SCT020 BKN035
     FM270500 22011KT P6SM SCT035 BKN250
     FM270900 23009KT 5SM BR BKN015
     FM271300 26012KT P6SM SCT025
     FM271800 27012KT P6SM -SHRA SCT025 OVC200=



000
FTUS43 KLOT 261728
TAFRFD
TAF
KRFD 261728Z 2618/2718 14011KT 5SM -RA VCTS OVC015CB
      TEMPO 2618/2619 3SM RA OVC015
     FM261900 18015G25KT P6SM VCSH BKN025
     FM270000 23010KT P6SM BKN030
     FM270500 23009KT P6SM SCT035 BKN250
     FM270900 23010KT 5SM BR BKN015
     FM271300 26010KT P6SM SCT025=



000
FTUS43 KLOT 261728
TAFGYY
TAF
KGYY 261728Z 2618/2718 17012G20KT 6SM -SHRA VCTS BKN020CB OVC025
      TEMPO 2618/2620 3SM RA OVC020
     FM262000 18015G22KT P6SM VCSH BKN025
     FM270000 21010KT P6SM SCT020 BKN035
     FM270500 22011KT P6SM SCT035 BKN250
     FM270900 23009KT 5SM BR BKN015
     FM271300 26012KT P6SM SCT025=



000
FTUS43 KLOT 261728
TAFMDW
TAF
KMDW 261728Z 2618/2718 16013G24KT 5SM -SHRA VCTS BKN020CB OVC025
      TEMPO 2618/2619 2SM RA OVC020
     FM261900 18015G22KT P6SM VCSH BKN025
     FM270000 21010KT P6SM SCT020 BKN035
     FM270500 22011KT P6SM SCT035 BKN250
     FM270900 23009KT 5SM BR BKN015
     FM271300 26012KT P6SM SCT025=



000
FTUS43 KLOT 261728
TAFGYY
TAF
KGYY 261728Z 2618/2718 17012G20KT 6SM -SHRA VCTS BKN020CB OVC025
      TEMPO 2618/2620 3SM RA OVC020
     FM262000 18015G22KT P6SM VCSH BKN025
     FM270000 21010KT P6SM SCT020 BKN035
     FM270500 22011KT P6SM SCT035 BKN250
     FM270900 23009KT 5SM BR BKN015
     FM271300 26012KT P6SM SCT025=



000
FTUS43 KLOT 261551 AAB
TAFRFD
TAF AMD
KRFD 261551Z 2616/2712 14011KT P6SM VCTS OVC010CB
      TEMPO 2617/2619 3SM RA OVC010
     FM261900 18015G25KT P6SM VCSH BKN025
     FM270000 23010KT P6SM BKN030
     FM270500 23009KT P6SM SCT035 BKN250=



000
FTUS43 KLOT 261551 AAB
TAFDPA
TAF AMD
KDPA 261551Z 2616/2712 16014KT P6SM BKN020 OVC025
     FM261730 17012G20KT 6SM -SHRA VCTS BKN020CB
      TEMPO 2618/2620 3SM RA OVC020
     FM262000 18015G22KT P6SM VCSH BKN025
     FM262300 22014G22KT P6SM SCT020 BKN035
     FM270500 23011KT P6SM SCT035 BKN250=



000
FTUS43 KLOT 261551 AAB
TAFMDW
TAF AMD
KMDW 261551Z 2616/2712 16012KT P6SM BKN020 OVC025
     FM261730 17012G20KT 6SM -SHRA VCTS BKN020CB
      TEMPO 2618/2620 3SM RA OVC020
     FM262000 18015G22KT P6SM VCSH BKN025
     FM262300 22014G22KT P6SM SCT020 BKN035
     FM270500 23011KT P6SM SCT035 BKN250=



000
FTUS43 KLOT 261551 AAB
TAFGYY
TAF AMD
KGYY 261551Z 2616/2712 15010KT P6SM OVC020
     FM261800 18012G20KT 6SM -SHRA VCTS BKN020CB
      TEMPO 2619/2621 5SM -RA OVC020
     FM262100 20015G22KT P6SM VCSH BKN025
     FM262300 21014G22KT P6SM SCT020 BKN035
     FM270500 23011KT P6SM SCT035 BKN250=



000
FTUS43 KLOT 261551 AAB
TAFORD
TAF AMD
KORD 261551Z 2616/2718 16014KT P6SM BKN020 OVC025
     FM261730 17012G20KT 6SM -SHRA VCTS BKN020CB
      TEMPO 2618/2620 3SM RA OVC020
     FM262000 18015G22KT P6SM VCSH BKN025
     FM262300 22014G22KT P6SM SCT020 BKN035
     FM270500 23011KT P6SM SCT035 BKN250
     FM271300 25010KT P6SM SCT040=



000
FTUS43 KLOT 261359 AAA
TAFGYY
TAF AMD
KGYY 261359Z 2614/2712 16011KT P6SM OVC025
     FM261700 18012G20KT 6SM -SHRA BKN020
      TEMPO 2619/2621 3SM TSRA OVC020CB
     FM262300 21014G22KT P6SM SCT020 BKN035
     FM270500 23011KT P6SM SCT035 BKN250=



000
FTUS43 KLOT 261359 AAA
TAFDPA
TAF AMD
KDPA 261359Z 2614/2712 16011KT P6SM OVC015
     FM261700 18012G20KT 6SM -SHRA BKN020
      TEMPO 2619/2621 3SM TSRA OVC020CB
     FM262300 22014G22KT P6SM SCT020 BKN035
     FM270500 23011KT P6SM SCT035 BKN250=



000
FTUS43 KLOT 261359 AAA
TAFORD
TAF AMD
KORD 261359Z 2614/2718 17011KT P6SM OVC015
     FM261700 18012G20KT 6SM -SHRA BKN020
      TEMPO 2619/2621 3SM TSRA OVC020CB
     FM262300 22014G22KT P6SM SCT020 BKN035
     FM270500 23011KT P6SM SCT035 BKN250
     FM271300 25010KT P6SM SCT040=



000
FTUS43 KLOT 261359 AAA
TAFMDW
TAF AMD
KMDW 261359Z 2614/2712 17011KT P6SM OVC015
     FM261700 18012G20KT 6SM -SHRA BKN020
      TEMPO 2619/2621 3SM TSRA OVC020CB
     FM262300 22014G22KT P6SM SCT020 BKN035
     FM270500 23011KT P6SM SCT035 BKN250=



000
FTUS43 KLOT 261359 AAA
TAFRFD
TAF AMD
KRFD 261359Z 2614/2712 17009KT 5SM BR OVC010
     FM261500 18012G20KT 6SM -SHRA BKN020
      TEMPO 2618/2620 3SM TSRA OVC020CB
     FM262300 22012G22KT P6SM SCT020 BKN035
     FM270500 23011KT P6SM SCT035 BKN250=



000
FTUS43 KLOT 261123
TAFORD
TAF
KORD 261123Z 2612/2718 18011KT P6SM OVC010
      TEMPO 2612/2615 OVC008
     FM261600 17012G18KT 6SM -SHRA SCT012 OVC030
      TEMPO 2617/2620 3SM TSRA OVC020CB
     FM262300 22014G22KT P6SM SCT020 BKN035
     FM270500 23011KT P6SM SCT035 BKN250
     FM271300 25010KT P6SM SCT040=



000
FTUS43 KLOT 261123
TAFDPA
TAF
KDPA 261123Z 2612/2712 18010KT P6SM BKN008
     FM261600 17012G18KT 6SM -SHRA SCT012 OVC030
      TEMPO 2617/2620 3SM TSRA OVC020CB
     FM262300 22014G22KT P6SM SCT020 BKN035
     FM270500 23011KT P6SM SCT035 BKN250=



000
FTUS43 KLOT 261123
TAFMDW
TAF
KMDW 261123Z 2612/2712 18011KT P6SM OVC012
      TEMPO 2612/2615 OVC008
     FM261600 17012G18KT 6SM -SHRA SCT012 OVC030
      TEMPO 2617/2620 3SM TSRA OVC020CB
     FM262300 22014G22KT P6SM SCT020 BKN035
     FM270500 23011KT P6SM SCT035 BKN250=



000
FTUS43 KLOT 261123
TAFRFD
TAF
KRFD 261123Z 2612/2712 18010KT P6SM SCT050 BKN250
     FM261600 17012G18KT 6SM -SHRA SCT012 OVC030
      TEMPO 2617/2620 3SM TSRA OVC020CB
     FM262300 22012G22KT P6SM SCT020 BKN035
     FM270500 23011KT P6SM SCT035 BKN250=



000
FTUS43 KLOT 261123
TAFGYY
TAF
KGYY 261123Z 2612/2712 18011KT P6SM BKN010
      TEMPO 2612/2615 OVC008
     FM261600 17012G18KT 6SM -SHRA SCT012 OVC030
      TEMPO 2617/2620 3SM TSRA OVC020CB
     FM262300 21014G22KT P6SM SCT020 BKN035
     FM270500 23011KT P6SM SCT035 BKN250=



000
FTUS43 KLOT 261123 CCA
TAFRFD
TAF COR
KRFD 261123Z 2612/2712 18010KT P6SM OVC011
      TEMPO 2612/2616 OVC008
     FM261600 17012G18KT 6SM -SHRA SCT012 OVC030
      TEMPO 2617/2620 3SM TSRA OVC020CB
     FM262300 22012G22KT P6SM SCT020 BKN035
     FM270500 23011KT P6SM SCT035 BKN250=



000
FTUS43 KLOT 261123
TAFGYY
TAF
KGYY 261123Z 2612/2712 18011KT P6SM BKN010
      TEMPO 2612/2615 OVC008
     FM261600 17012G18KT 6SM -SHRA SCT012 OVC030
      TEMPO 2617/2620 3SM TSRA OVC020CB
     FM262300 21014G22KT P6SM SCT020 BKN035
     FM270500 23011KT P6SM SCT035 BKN250=



000
FTUS43 KLOT 260943 AAB
TAFDPA
TAF AMD
KDPA 260943Z 2610/2706 20010KT P6SM BKN008
     FM261600 17012KT 6SM -SHRA SCT012 OVC030
      TEMPO 2617/2620 3SM TSRA OVC020CB
     FM262300 22014G22KT P6SM SCT020 BKN035=



000
FTUS43 KLOT 260942 CCA
TAFORD
TAF COR
KORD 260942Z 2609/2712 20010KT P6SM BKN012
     FM261600 17012KT 6SM -SHRA SCT015 OVC030
      TEMPO 2617/2620 3SM TSRA OVC020CB
     FM262300 22014G16KT P6SM SCT020 BKN035
     FM270700 23010KT P6SM SCT040=



000
FTUS43 KLOT 260942 AAB
TAFGYY
TAF AMD
KGYY 260942Z 2610/2706 20011KT P6SM BKN012
     FM261600 17012KT 6SM -SHRA SCT015 OVC030
      TEMPO 2617/2620 3SM TSRA OVC020CB
     FM262300 21014G22KT P6SM SCT020 BKN035=



000
FTUS43 KLOT 260942 AAB
TAFGYY
TAF AMD
KGYY 260942Z 2610/2706 20011KT P6SM BKN012
     FM261600 17012KT 6SM -SHRA SCT015 OVC030
      TEMPO 2617/2620 3SM TSRA OVC020CB
     FM262300 21014G22KT P6SM SCT020 BKN035=



000
FTUS43 KLOT 260942 AAB
TAFGYY
TAF AMD
KGYY 260942Z 2610/2706 20011KT P6SM BKN012
     FM261600 17012KT 6SM -SHRA SCT015 OVC030
      TEMPO 2617/2620 3SM TSRA OVC020CB
     FM262300 21014G22KT P6SM SCT020 BKN035=



000
FTUS43 KLOT 260942 AAB
TAFGYY
TAF AMD
KGYY 260942Z 2610/2706 20011KT P6SM BKN012
     FM261600 17012KT 6SM -SHRA SCT015 OVC030
      TEMPO 2617/2620 3SM TSRA OVC020CB
     FM262300 21014G22KT P6SM SCT020 BKN035=



000
FTUS43 KLOT 260942 CCA
TAFORD
TAF COR
KORD 260942Z 2609/2712 20010KT P6SM BKN012
     FM261600 17012KT 6SM -SHRA SCT015 OVC030
      TEMPO 2617/2620 3SM TSRA OVC020CB
     FM262300 22014G16KT P6SM SCT020 BKN035
     FM270700 23010KT P6SM SCT040=



000
FTUS43 KLOT 260941 AAC
TAFMDW
TAF AMD
KMDW 260941Z 2610/2706 20010KT P6SM BKN012 WS018/22040KT
     FM261200 19011KT P6SM BKN012 BKN150
     FM261600 17012KT 6SM -SHRA SCT015 OVC030
      TEMPO 2617/2620 3SM TSRA OVC020CB
     FM262300 22014G22KT P6SM SCT020 BKN035=



000
FTUS43 KLOT 260940 AAB
TAFMDW
TAF AMD
KMDW 260940Z 2610/2706 20010KT P6SM BKN012 WS018/22040KT
     FM261200 19011KT P6SM BKN012 BKN150
     FM261600 17012KT 6SM -SHRA SCT015 OVC030
      TEMPO 2617/2620 3SM TSRA OVC020CB
     FM262300 22014G22KT P6SM SCT020 BKN035=



000
FTUS43 KLOT 260853 AAA
TAFMDW
TAF AMD
KMDW 260853Z 2609/2706 20010KT P6SM SKC WS018/22040KT
     FM261200 19011KT P6SM BKN015 BKN150
     FM261600 17012KT 6SM -SHRA SCT015 OVC030
      TEMPO 2617/2620 3SM TSRA OVC020CB
     FM262300 22014G22KT P6SM SCT020 BKN035=



000
FTUS43 KLOT 260853 AAA
TAFDPA
TAF AMD
KDPA 260853Z 2609/2706 20010KT P6SM SCT250 WS018/22040KT
     FM261200 19011KT P6SM BKN015 BKN150
     FM261600 17012KT 6SM -SHRA SCT015 OVC030
      TEMPO 2617/2620 3SM TSRA OVC020CB
     FM262300 22014G22KT P6SM SCT020 BKN035=



000
FTUS43 KLOT 260853 AAA
TAFORD
TAF AMD
KORD 260853Z 2609/2712 20010KT P6SM SCT250 WS018/22040KT
     FM261200 18011KT P6SM BKN015 BKN150
     FM261600 17012KT 6SM -SHRA SCT015 OVC030
      TEMPO 2617/2620 3SM TSRA OVC020CB
     FM262300 22014G16KT P6SM SCT020 BKN035
     FM270700 23010KT P6SM SCT040=



000
FTUS43 KLOT 260853 AAA
TAFORD
TAF AMD
KORD 260853Z 2609/2712 20010KT P6SM SCT250 WS018/22040KT
     FM261200 18011KT P6SM BKN015 BKN150
     FM261600 17012KT 6SM -SHRA SCT015 OVC030
      TEMPO 2617/2620 3SM TSRA OVC020CB
     FM262300 22014G16KT P6SM SCT020 BKN035
     FM270700 23010KT P6SM SCT040=



000
FTUS43 KLOT 260853 AAA
TAFMDW
TAF AMD
KMDW 260853Z 2609/2706 20010KT P6SM SKC WS018/22040KT
     FM261200 19011KT P6SM BKN015 BKN150
     FM261600 17012KT 6SM -SHRA SCT015 OVC030
      TEMPO 2617/2620 3SM TSRA OVC020CB
     FM262300 22014G22KT P6SM SCT020 BKN035=



000
FTUS43 KLOT 260853 AAA
TAFDPA
TAF AMD
KDPA 260853Z 2609/2706 20010KT P6SM SCT250 WS018/22040KT
     FM261200 19011KT P6SM BKN015 BKN150
     FM261600 17012KT 6SM -SHRA SCT015 OVC030
      TEMPO 2617/2620 3SM TSRA OVC020CB
     FM262300 22014G22KT P6SM SCT020 BKN035=



000
FTUS43 KLOT 260853 AAA
TAFGYY
TAF AMD
KGYY 260853Z 2609/2706 20008KT P6SM SCT250 WS018/22040KT
     FM261200 19011KT P6SM BKN015 BKN150
     FM261600 17012KT 6SM -SHRA SCT015 OVC030
      TEMPO 2617/2620 3SM TSRA OVC020CB
     FM262300 21014G22KT P6SM SCT020 BKN035=



000
FTUS43 KLOT 260853 AAA
TAFRFD
TAF AMD
KRFD 260853Z 2609/2706 20010KT P6SM SCT250 WS018/21043KT
     FM261100 19010KT 6SM BR VCSH BKN015 BKN150
     FM261500 17012G18KT 6SM -SHRA SCT015 OVC030
      TEMPO 2617/2620 3SM TSRA OVC020CB
     FM262300 22012G22KT P6SM SCT020 BKN035=



000
FTUS43 KLOT 260853 AAA
TAFGYY
TAF AMD
KGYY 260853Z 2609/2706 20008KT P6SM SCT250 WS018/22040KT
     FM261200 19011KT P6SM BKN015 BKN150
     FM261600 17012KT 6SM -SHRA SCT015 OVC030
      TEMPO 2617/2620 3SM TSRA OVC020CB
     FM262300 21014G22KT P6SM SCT020 BKN035=



000
FTUS43 KLOT 260853 AAA
TAFRFD
TAF AMD
KRFD 260853Z 2609/2706 20010KT P6SM SCT250 WS018/21043KT
     FM261100 19010KT 6SM BR VCSH BKN015 BKN150
     FM261500 17012G18KT 6SM -SHRA SCT015 OVC030
      TEMPO 2617/2620 3SM TSRA OVC020CB
     FM262300 22012G22KT P6SM SCT020 BKN035=



000
FTUS43 KLOT 260853 AAA
TAFGYY
TAF AMD
KGYY 260853Z 2609/2706 20008KT P6SM SCT250 WS018/22040KT
     FM261200 19011KT P6SM BKN015 BKN150
     FM261600 17012KT 6SM -SHRA SCT015 OVC030
      TEMPO 2617/2620 3SM TSRA OVC020CB
     FM262300 21014G22KT P6SM SCT020 BKN035=



000
FTUS43 KLOT 260853 AAA
TAFGYY
TAF AMD
KGYY 260853Z 2609/2706 20008KT P6SM SCT250 WS018/22040KT
     FM261200 19011KT P6SM BKN015 BKN150
     FM261600 17012KT 6SM -SHRA SCT015 OVC030
      TEMPO 2617/2620 3SM TSRA OVC020CB
     FM262300 21014G22KT P6SM SCT020 BKN035=



000
FTUS43 KLOT 260530
TAFDPA
TAF
KDPA 260530Z 2606/2706 18010KT P6SM SCT250 WS018/22040KT
     FM261200 19011KT P6SM BKN015 BKN150
     FM261600 19012KT 6SM -SHRA SCT015 OVC030
      TEMPO 2617/2620 3SM TSRA OVC020CB
     FM262300 22014G22KT P6SM SCT020 BKN035=



000
FTUS43 KLOT 260530
TAFMDW
TAF
KMDW 260530Z 2606/2706 18011KT P6SM SKC WS018/22040KT
     FM261200 19011KT P6SM BKN015 BKN150
     FM261600 19012KT 6SM -SHRA SCT015 OVC030
      TEMPO 2617/2620 3SM TSRA OVC020CB
     FM262300 22014G22KT P6SM SCT020 BKN035=



000
FTUS43 KLOT 260530
TAFRFD
TAF
KRFD 260530Z 2606/2706 19005KT P6SM SCT250 WS018/21043KT
     FM261100 19010KT 6SM BR VCSH BKN015 BKN150
     FM261500 19012G18KT 6SM -SHRA SCT015 OVC030
      TEMPO 2617/2620 3SM TSRA OVC020CB
     FM262300 22012G22KT P6SM SCT020 BKN035=



000
FTUS43 KLOT 260530
TAFDPA
TAF
KDPA 260530Z 2606/2706 18010KT P6SM SCT250 WS018/22040KT
     FM261200 19011KT P6SM BKN015 BKN150
     FM261600 19012KT 6SM -SHRA SCT015 OVC030
      TEMPO 2617/2620 3SM TSRA OVC020CB
     FM262300 22014G22KT P6SM SCT020 BKN035=



000
FTUS43 KLOT 260530
TAFMDW
TAF
KMDW 260530Z 2606/2706 18011KT P6SM SKC WS018/22040KT
     FM261200 19011KT P6SM BKN015 BKN150
     FM261600 19012KT 6SM -SHRA SCT015 OVC030
      TEMPO 2617/2620 3SM TSRA OVC020CB
     FM262300 22014G22KT P6SM SCT020 BKN035=



000
FTUS43 KLOT 260530
TAFGYY
TAF
KGYY 260530Z 2606/2706 19010KT P6SM SCT250 WS018/22040KT
     FM261200 19011KT P6SM BKN015 BKN150
     FM261600 19012KT 6SM -SHRA SCT015 OVC030
      TEMPO 2617/2620 3SM TSRA OVC020CB
     FM262300 21014G22KT P6SM SCT020 BKN035=



000
FTUS43 KLOT 260530
TAFGYY
TAF
KGYY 260530Z 2606/2706 19010KT P6SM SCT250 WS018/22040KT
     FM261200 19011KT P6SM BKN015 BKN150
     FM261600 19012KT 6SM -SHRA SCT015 OVC030
      TEMPO 2617/2620 3SM TSRA OVC020CB
     FM262300 21014G22KT P6SM SCT020 BKN035=



000
FTUS43 KLOT 260530
TAFORD
TAF
KORD 260530Z 2606/2712 18010KT P6SM SCT250 WS018/22040KT
     FM261200 19011KT P6SM BKN015 BKN150
     FM261600 19012KT 6SM -SHRA SCT015 OVC030
      TEMPO 2617/2620 3SM TSRA OVC020CB
     FM262300 22014G16KT P6SM SCT020 BKN035
     FM270700 23010KT P6SM SCT040=



000
FTUS43 KLOT 260530
TAFRFD
TAF
KRFD 260530Z 2606/2706 19005KT P6SM SCT250 WS018/21043KT
     FM261100 19010KT 6SM BR VCSH BKN015 BKN150
     FM261500 19012G18KT 6SM -SHRA SCT015 OVC030
      TEMPO 2617/2620 3SM TSRA OVC020CB
     FM262300 22012G22KT P6SM SCT020 BKN035=



    US Dept of Commerce
    National Oceanic and Atmospheric Administration
    National Weather Service
    1325 East West Highway
    Silver Spring, MD 20910
    Page Author: NWS Internet Services Team
Disclaimer
Information Quality
Credits
Glossary
Privacy Policy
Freedom of Information Act (FOIA)
About Us
Career Opportunities